SWR83 KTPA-LSZH
Flight info
| Callsign | SWR83 |
|---|---|
| Flight time | 8h 43m |
| Altitude | 37000 |
| Route | BAYPO2 CAMJO DCT TEEEM Q99 POLYY DCT DADDS DCT NOWAE Q87 GEARS DCT BBOBO Q22 FOXWD DCT TAFFY N693A NEEKO/M085F370 DCT 54N050W 55N040W 56N030W 56N020W DCT RESNO DCT NETKI/N0485F370 DCT MORAG DCT NUCHU DCT BOGNA UL612 VEULE DCT TEPRI UN491 POGZI DCT GELTA DCT MANAG DCT PEVIT DCT BLM |
| Aircraft | A359/H-SDE2E3GHIJ3J4J5LM1ORWXY/LB1D1 |
Departure
| Time | 2026-05-06 13:42 |
|---|---|
| Airport | Tampa International Airport (KTPA) |
Arrival
| Time | 2026-05-06 22:25 |
|---|---|
| Airport | Zürich Airport (LSZH) |
| Time | Latitude | Longitude | Altitude | Speed | Heading |
|---|---|---|---|---|---|
| 2026-05-06 13:11 | 27.97596 | -82.53721 | 48 ft | 0 kts | 55° |
| 2026-05-06 13:32 | 27.97584 | -82.53740 | 45 ft | 4 kts | 55° |
| 2026-05-06 13:32 | 27.97578 | -82.53750 | 48 ft | 4 kts | 55° |
| 2026-05-06 13:33 | 27.97570 | -82.53763 | 44 ft | 4 kts | 61° |
| 2026-05-06 13:33 | 27.97557 | -82.53785 | 44 ft | 3 kts | 36° |
| 2026-05-06 13:33 | 27.97540 | -82.53797 | 44 ft | 4 kts | 2° |
| 2026-05-06 13:33 | 27.97529 | -82.53796 | 45 ft | 4 kts | 310° |
| 2026-05-06 13:34 | 27.97513 | -82.53772 | 43 ft | 4 kts | 309° |
| 2026-05-06 13:34 | 27.97504 | -82.53760 | 46 ft | 1 kts | 316° |
| 2026-05-06 13:34 | 27.97503 | -82.53759 | 46 ft | 0 kts | 316° |
| 2026-05-06 13:36 | 27.97539 | -82.53800 | 44 ft | 10 kts | 312° |
| 2026-05-06 13:37 | 27.97586 | -82.53881 | 50 ft | 14 kts | 302° |
| 2026-05-06 13:37 | 27.97645 | -82.53968 | 52 ft | 13 kts | 325° |
| 2026-05-06 13:37 | 27.97750 | -82.53981 | 52 ft | 18 kts | 1° |
| 2026-05-06 13:37 | 27.97880 | -82.53977 | 52 ft | 18 kts | 4° |
| 2026-05-06 13:38 | 27.98006 | -82.53972 | 49 ft | 18 kts | 1° |
| 2026-05-06 13:38 | 27.98131 | -82.53968 | 52 ft | 18 kts | 2° |
| 2026-05-06 13:38 | 27.98259 | -82.53963 | 46 ft | 19 kts | 2° |
| 2026-05-06 13:38 | 27.98392 | -82.53958 | 49 ft | 20 kts | 1° |
| 2026-05-06 13:39 | 27.98533 | -82.53954 | 48 ft | 20 kts | 1° |
| 2026-05-06 13:39 | 27.98675 | -82.53948 | 50 ft | 21 kts | 2° |
| 2026-05-06 13:39 | 27.98818 | -82.53942 | 49 ft | 21 kts | 359° |
| 2026-05-06 13:39 | 27.98962 | -82.53942 | 49 ft | 21 kts | 1° |
| 2026-05-06 13:40 | 27.99107 | -82.53938 | 52 ft | 21 kts | 1° |
| 2026-05-06 13:40 | 27.99265 | -82.53934 | 52 ft | 23 kts | 1° |
| 2026-05-06 13:40 | 27.99349 | -82.54019 | 52 ft | 17 kts | 272° |
| 2026-05-06 13:40 | 27.99302 | -82.54130 | 52 ft | 17 kts | 196° |
| 2026-05-06 13:41 | 27.99037 | -82.54142 | 49 ft | 66 kts | 181° |
| 2026-05-06 13:41 | 27.98392 | -82.54163 | 52 ft | 117 kts | 181° |
| 2026-05-06 13:41 | 27.97419 | -82.54190 | 55 ft | 161 kts | 182° |
| 2026-05-06 13:41 | 27.96297 | -82.54230 | 535 ft | 159 kts | 179° |
| 2026-05-06 13:42 | 27.95239 | -82.54425 | 1075 ft | 157 kts | 209° |
| 2026-05-06 13:42 | 27.94615 | -82.55479 | 1302 ft | 178 kts | 258° |
| 2026-05-06 13:42 | 27.94947 | -82.56897 | 1421 ft | 205 kts | 306° |
| 2026-05-06 13:42 | 27.95698 | -82.57595 | 1539 ft | 218 kts | 332° |
| 2026-05-06 13:43 | 27.97720 | -82.58462 | 1764 ft | 249 kts | 352° |
| 2026-05-06 13:43 | 27.98889 | -82.58586 | 1919 ft | 262 kts | 359° |
| 2026-05-06 13:43 | 28.00753 | -82.58612 | 2378 ft | 270 kts | 0° |
| 2026-05-06 13:43 | 28.02641 | -82.58578 | 3047 ft | 271 kts | 1° |
| 2026-05-06 13:44 | 28.04526 | -82.58507 | 3681 ft | 271 kts | 2° |
| 2026-05-06 13:44 | 28.06404 | -82.58415 | 4387 ft | 268 kts | 2° |
| 2026-05-06 13:44 | 28.08254 | -82.58311 | 5124 ft | 264 kts | 2° |
| 2026-05-06 13:44 | 28.10086 | -82.58203 | 5751 ft | 265 kts | 3° |
| 2026-05-06 13:45 | 28.11941 | -82.58090 | 6295 ft | 268 kts | 3° |
| 2026-05-06 13:45 | 28.15703 | -82.57855 | 7435 ft | 273 kts | 3° |
| 2026-05-06 13:45 | 28.17606 | -82.57734 | 8034 ft | 275 kts | 3° |
| 2026-05-06 13:46 | 28.19524 | -82.57613 | 8645 ft | 277 kts | 3° |
| 2026-05-06 13:46 | 28.21455 | -82.57547 | 9246 ft | 279 kts | 359° |
| 2026-05-06 13:46 | 28.23406 | -82.57622 | 9863 ft | 282 kts | 357° |
| 2026-05-06 13:46 | 28.25357 | -82.57711 | 10312 ft | 290 kts | 358° |
| 2026-05-06 13:47 | 28.27431 | -82.57793 | 10557 ft | 305 kts | 358° |
| 2026-05-06 13:47 | 28.29605 | -82.57869 | 10805 ft | 319 kts | 358° |
| 2026-05-06 13:47 | 28.31878 | -82.57941 | 11026 ft | 333 kts | 358° |
| 2026-05-06 13:47 | 28.34235 | -82.58013 | 11248 ft | 345 kts | 358° |
| 2026-05-06 13:48 | 28.36676 | -82.58087 | 11479 ft | 356 kts | 358° |
| 2026-05-06 13:48 | 28.39198 | -82.58157 | 11691 ft | 367 kts | 358° |
| 2026-05-06 13:48 | 28.41781 | -82.58219 | 11982 ft | 373 kts | 358° |
| 2026-05-06 13:48 | 28.44388 | -82.58282 | 12406 ft | 376 kts | 358° |
| 2026-05-06 13:49 | 28.47010 | -82.58345 | 12858 ft | 377 kts | 358° |
| 2026-05-06 13:49 | 28.49641 | -82.58411 | 13324 ft | 379 kts | 357° |
| 2026-05-06 13:49 | 28.52281 | -82.58477 | 13778 ft | 380 kts | 357° |
| 2026-05-06 13:49 | 28.54933 | -82.58543 | 14201 ft | 382 kts | 357° |
| 2026-05-06 13:50 | 28.57567 | -82.58611 | 14549 ft | 385 kts | 357° |
| 2026-05-06 13:50 | 28.60256 | -82.58676 | 14896 ft | 388 kts | 357° |
| 2026-05-06 13:50 | 28.62956 | -82.58744 | 15257 ft | 390 kts | 356° |
| 2026-05-06 13:50 | 28.65677 | -82.58815 | 15607 ft | 392 kts | 356° |
| 2026-05-06 13:51 | 28.68400 | -82.59038 | 15943 ft | 393 kts | 352° |
| 2026-05-06 13:51 | 28.71126 | -82.59401 | 16281 ft | 395 kts | 351° |
| 2026-05-06 13:51 | 28.73860 | -82.59787 | 16623 ft | 397 kts | 351° |
| 2026-05-06 13:51 | 28.76606 | -82.60174 | 16966 ft | 399 kts | 351° |
| 2026-05-06 13:52 | 28.79374 | -82.60563 | 17308 ft | 401 kts | 350° |
| 2026-05-06 13:52 | 28.82150 | -82.60949 | 17655 ft | 403 kts | 350° |
| 2026-05-06 13:52 | 28.84939 | -82.61339 | 17999 ft | 405 kts | 350° |
| 2026-05-06 13:52 | 28.87714 | -82.61727 | 18325 ft | 407 kts | 350° |
| 2026-05-06 13:53 | 28.90528 | -82.62121 | 18618 ft | 409 kts | 350° |
| 2026-05-06 13:53 | 28.93364 | -82.62518 | 18914 ft | 411 kts | 349° |
| 2026-05-06 13:53 | 28.96208 | -82.62916 | 19228 ft | 412 kts | 349° |
| 2026-05-06 13:53 | 28.99064 | -82.63317 | 19526 ft | 414 kts | 349° |
| 2026-05-06 13:54 | 29.01928 | -82.63718 | 19835 ft | 415 kts | 349° |
| 2026-05-06 13:54 | 29.04802 | -82.64119 | 20138 ft | 417 kts | 349° |
| 2026-05-06 13:54 | 29.07692 | -82.64525 | 20449 ft | 418 kts | 349° |
| 2026-05-06 13:54 | 29.10585 | -82.64932 | 20774 ft | 420 kts | 349° |
| 2026-05-06 13:55 | 29.13500 | -82.65341 | 21102 ft | 422 kts | 349° |
| 2026-05-06 13:55 | 29.16415 | -82.65750 | 21424 ft | 423 kts | 349° |
| 2026-05-06 13:55 | 29.19347 | -82.66163 | 21776 ft | 425 kts | 349° |
| 2026-05-06 13:55 | 29.22289 | -82.66577 | 22097 ft | 427 kts | 349° |
| 2026-05-06 13:56 | 29.25241 | -82.66991 | 22445 ft | 429 kts | 349° |
| 2026-05-06 13:56 | 29.28173 | -82.67403 | 22785 ft | 430 kts | 349° |
| 2026-05-06 13:56 | 29.31154 | -82.67824 | 23143 ft | 432 kts | 349° |
| 2026-05-06 13:56 | 29.34143 | -82.68244 | 23495 ft | 434 kts | 349° |
| 2026-05-06 13:57 | 29.37157 | -82.68669 | 23792 ft | 436 kts | 348° |
| 2026-05-06 13:57 | 29.40173 | -82.69089 | 24084 ft | 438 kts | 349° |
| 2026-05-06 13:57 | 29.43246 | -82.69304 | 24396 ft | 443 kts | 354° |
| 2026-05-06 13:57 | 29.46340 | -82.69312 | 24718 ft | 445 kts | 355° |
| 2026-05-06 13:58 | 29.49439 | -82.69288 | 25050 ft | 447 kts | 355° |
| 2026-05-06 13:58 | 29.52521 | -82.69264 | 25390 ft | 448 kts | 355° |
| 2026-05-06 13:58 | 29.55649 | -82.69242 | 25728 ft | 450 kts | 354° |
| 2026-05-06 13:58 | 29.58790 | -82.69220 | 26093 ft | 451 kts | 354° |
| 2026-05-06 13:59 | 29.61940 | -82.69200 | 26443 ft | 453 kts | 354° |
| 2026-05-06 13:59 | 29.65102 | -82.69180 | 26807 ft | 455 kts | 354° |
| 2026-05-06 13:59 | 29.68276 | -82.69160 | 27163 ft | 457 kts | 354° |
| 2026-05-06 13:59 | 29.71470 | -82.69140 | 27509 ft | 458 kts | 354° |
| 2026-05-06 14:00 | 29.74665 | -82.69120 | 27859 ft | 460 kts | 353° |
| 2026-05-06 14:00 | 29.77827 | -82.69100 | 28181 ft | 462 kts | 353° |
| 2026-05-06 14:00 | 29.81050 | -82.69079 | 28526 ft | 463 kts | 353° |
| 2026-05-06 14:00 | 29.84280 | -82.69059 | 28837 ft | 465 kts | 353° |
| 2026-05-06 14:01 | 29.87522 | -82.69038 | 29147 ft | 466 kts | 353° |
| 2026-05-06 14:01 | 29.90777 | -82.69018 | 29437 ft | 468 kts | 353° |
| 2026-05-06 14:01 | 29.94047 | -82.68998 | 29732 ft | 470 kts | 353° |
| 2026-05-06 14:01 | 29.97314 | -82.68975 | 30184 ft | 468 kts | 353° |
| 2026-05-06 14:02 | 30.00560 | -82.68953 | 30556 ft | 465 kts | 353° |
| 2026-05-06 14:02 | 30.03798 | -82.68935 | 30927 ft | 464 kts | 352° |
| 2026-05-06 14:02 | 30.07019 | -82.68914 | 31264 ft | 463 kts | 352° |
| 2026-05-06 14:02 | 30.10201 | -82.68893 | 31602 ft | 461 kts | 352° |
| 2026-05-06 14:03 | 30.13404 | -82.68872 | 31960 ft | 459 kts | 352° |
| 2026-05-06 14:03 | 30.16602 | -82.68851 | 32312 ft | 458 kts | 352° |
| 2026-05-06 14:03 | 30.19787 | -82.68831 | 32622 ft | 457 kts | 352° |
| 2026-05-06 14:03 | 30.22959 | -82.68811 | 32939 ft | 456 kts | 352° |
| 2026-05-06 14:04 | 30.26126 | -82.68792 | 33273 ft | 454 kts | 352° |
| 2026-05-06 14:04 | 30.29288 | -82.68772 | 33584 ft | 453 kts | 352° |
| 2026-05-06 14:04 | 30.32435 | -82.68752 | 33878 ft | 452 kts | 352° |
| 2026-05-06 14:04 | 30.35583 | -82.68733 | 34168 ft | 451 kts | 352° |
| 2026-05-06 14:05 | 30.38722 | -82.68713 | 34410 ft | 450 kts | 352° |
| 2026-05-06 14:05 | 30.41821 | -82.68695 | 34592 ft | 450 kts | 352° |
| 2026-05-06 14:05 | 30.44960 | -82.68676 | 34798 ft | 450 kts | 352° |
| 2026-05-06 14:05 | 30.48105 | -82.68588 | 35008 ft | 454 kts | 355° |
| 2026-05-06 14:06 | 30.51275 | -82.68085 | 35184 ft | 465 kts | 3° |
| 2026-05-06 14:06 | 30.54416 | -82.67021 | 35385 ft | 475 kts | 10° |
| 2026-05-06 14:06 | 30.57522 | -82.65678 | 35576 ft | 478 kts | 11° |
| 2026-05-06 14:06 | 30.60586 | -82.64266 | 35754 ft | 479 kts | 12° |
| 2026-05-06 14:07 | 30.63682 | -82.62799 | 35941 ft | 479 kts | 12° |
| 2026-05-06 14:07 | 30.66769 | -82.61328 | 36124 ft | 479 kts | 12° |
| 2026-05-06 14:07 | 30.69849 | -82.59866 | 36286 ft | 479 kts | 12° |
| 2026-05-06 14:07 | 30.72948 | -82.58405 | 36456 ft | 478 kts | 12° |
| 2026-05-06 14:08 | 30.75996 | -82.56976 | 36610 ft | 478 kts | 12° |
| 2026-05-06 14:08 | 30.79079 | -82.55536 | 36770 ft | 478 kts | 11° |
| 2026-05-06 14:08 | 30.82167 | -82.54096 | 36912 ft | 478 kts | 11° |
| 2026-05-06 14:08 | 30.85256 | -82.52656 | 37056 ft | 478 kts | 11° |
| 2026-05-06 14:09 | 30.91457 | -82.49765 | 37139 ft | 482 kts | 11° |
| 2026-05-06 14:09 | 30.97729 | -82.46837 | 37134 ft | 488 kts | 11° |
| 2026-05-06 14:10 | 31.04074 | -82.43866 | 37127 ft | 493 kts | 12° |
| 2026-05-06 14:10 | 31.10458 | -82.40867 | 37117 ft | 496 kts | 12° |
| 2026-05-06 14:11 | 31.16875 | -82.37847 | 37116 ft | 498 kts | 12° |
| 2026-05-06 14:11 | 31.23312 | -82.34815 | 37112 ft | 499 kts | 12° |
| 2026-05-06 14:12 | 31.29757 | -82.31776 | 37112 ft | 499 kts | 12° |
| 2026-05-06 14:12 | 31.36196 | -82.28735 | 37106 ft | 499 kts | 12° |
| 2026-05-06 14:13 | 31.42646 | -82.25685 | 37100 ft | 500 kts | 12° |
| 2026-05-06 14:13 | 31.49098 | -82.22630 | 37094 ft | 500 kts | 12° |
| 2026-05-06 14:14 | 31.55506 | -82.19592 | 37093 ft | 500 kts | 12° |
| 2026-05-06 14:14 | 31.61977 | -82.16520 | 37113 ft | 501 kts | 12° |
| 2026-05-06 14:15 | 31.68435 | -82.13449 | 37111 ft | 501 kts | 12° |
| 2026-05-06 14:15 | 31.74901 | -82.10370 | 37107 ft | 502 kts | 12° |
| 2026-05-06 14:16 | 31.81375 | -82.07281 | 37097 ft | 502 kts | 12° |
| 2026-05-06 14:16 | 31.87861 | -82.04182 | 37097 ft | 503 kts | 12° |
| 2026-05-06 14:17 | 31.94340 | -82.01081 | 37097 ft | 503 kts | 12° |
| 2026-05-06 14:17 | 32.00837 | -81.97967 | 37100 ft | 504 kts | 12° |
| 2026-05-06 14:18 | 32.07292 | -81.94869 | 37099 ft | 504 kts | 12° |
| 2026-05-06 14:18 | 32.13783 | -81.91749 | 37103 ft | 504 kts | 11° |
| 2026-05-06 14:19 | 32.20224 | -81.88351 | 37102 ft | 511 kts | 16° |
| 2026-05-06 14:19 | 32.26559 | -81.84498 | 37105 ft | 512 kts | 17° |
| 2026-05-06 14:20 | 32.32896 | -81.80640 | 37096 ft | 512 kts | 16° |
| 2026-05-06 14:20 | 32.39262 | -81.76853 | 37086 ft | 511 kts | 16° |
| 2026-05-06 14:21 | 32.45633 | -81.73100 | 37086 ft | 511 kts | 15° |
| 2026-05-06 14:21 | 32.52000 | -81.69349 | 37084 ft | 511 kts | 16° |
| 2026-05-06 14:22 | 32.58375 | -81.65583 | 37114 ft | 512 kts | 16° |
| 2026-05-06 14:22 | 32.64706 | -81.61834 | 37112 ft | 512 kts | 16° |
| 2026-05-06 14:23 | 32.71082 | -81.58051 | 37112 ft | 512 kts | 16° |
| 2026-05-06 14:23 | 32.77457 | -81.54262 | 37106 ft | 512 kts | 16° |
| 2026-05-06 14:24 | 32.83831 | -81.50468 | 37095 ft | 512 kts | 16° |
| 2026-05-06 14:24 | 32.90208 | -81.46667 | 37092 ft | 512 kts | 16° |
| 2026-05-06 14:25 | 32.96575 | -81.42866 | 37097 ft | 512 kts | 16° |
| 2026-05-06 14:25 | 33.02945 | -81.39057 | 37103 ft | 511 kts | 16° |
| 2026-05-06 14:26 | 33.09257 | -81.35275 | 37103 ft | 511 kts | 16° |
| 2026-05-06 14:26 | 33.15626 | -81.31454 | 37093 ft | 511 kts | 16° |
| 2026-05-06 14:27 | 33.21973 | -81.27638 | 37101 ft | 511 kts | 16° |
| 2026-05-06 14:27 | 33.28319 | -81.23819 | 37102 ft | 511 kts | 16° |
| 2026-05-06 14:28 | 33.34667 | -81.19993 | 37095 ft | 510 kts | 17° |
| 2026-05-06 14:28 | 33.41011 | -81.16161 | 37072 ft | 510 kts | 17° |
| 2026-05-06 14:29 | 33.46284 | -81.12972 | 37069 ft | 510 kts | 17° |
| 2026-05-06 14:29 | 33.53655 | -81.08507 | 37067 ft | 511 kts | 17° |
| 2026-05-06 14:30 | 33.58965 | -81.05284 | 37064 ft | 511 kts | 17° |
| 2026-05-06 14:30 | 33.65280 | -81.01446 | 37066 ft | 511 kts | 17° |
| 2026-05-06 14:31 | 33.71625 | -80.97583 | 37062 ft | 511 kts | 17° |
| 2026-05-06 14:31 | 33.77973 | -80.93711 | 37066 ft | 512 kts | 17° |
| 2026-05-06 14:32 | 33.84300 | -80.89755 | 37062 ft | 517 kts | 22° |
| 2026-05-06 14:32 | 33.90245 | -80.84663 | 37066 ft | 527 kts | 28° |
| 2026-05-06 14:33 | 33.96047 | -80.79244 | 37067 ft | 528 kts | 29° |
| 2026-05-06 14:33 | 34.01829 | -80.73774 | 37065 ft | 528 kts | 28° |
| 2026-05-06 14:34 | 34.07618 | -80.68309 | 37063 ft | 528 kts | 28° |
| 2026-05-06 14:34 | 34.13376 | -80.62870 | 37081 ft | 528 kts | 28° |
| 2026-05-06 14:35 | 34.19171 | -80.57395 | 37080 ft | 528 kts | 28° |
| 2026-05-06 14:35 | 34.24956 | -80.51923 | 37082 ft | 528 kts | 28° |
| 2026-05-06 14:36 | 34.30759 | -80.46497 | 37083 ft | 527 kts | 28° |
| 2026-05-06 14:36 | 34.36602 | -80.41135 | 37076 ft | 527 kts | 27° |
| 2026-05-06 14:37 | 34.42446 | -80.35763 | 37068 ft | 527 kts | 28° |
| 2026-05-06 14:37 | 34.48270 | -80.30382 | 37069 ft | 527 kts | 28° |
| 2026-05-06 14:38 | 34.54097 | -80.24978 | 37076 ft | 527 kts | 28° |
| 2026-05-06 14:38 | 34.59893 | -80.19594 | 37072 ft | 526 kts | 28° |
| 2026-05-06 14:39 | 34.65714 | -80.14177 | 37067 ft | 526 kts | 28° |
| 2026-05-06 14:39 | 34.71523 | -80.08763 | 37059 ft | 526 kts | 28° |
| 2026-05-06 14:40 | 34.77300 | -80.03386 | 37064 ft | 525 kts | 27° |
| 2026-05-06 14:40 | 34.82749 | -79.97275 | 37065 ft | 542 kts | 39° |
| 2026-05-06 14:41 | 34.87626 | -79.90229 | 37060 ft | 546 kts | 41° |
| 2026-05-06 14:41 | 34.92377 | -79.83063 | 37063 ft | 547 kts | 42° |
| 2026-05-06 14:42 | 34.97148 | -79.75850 | 37064 ft | 547 kts | 42° |
| 2026-05-06 14:42 | 35.01935 | -79.68639 | 37062 ft | 546 kts | 42° |
| 2026-05-06 14:43 | 35.06724 | -79.61432 | 37037 ft | 546 kts | 42° |
| 2026-05-06 14:43 | 35.11501 | -79.54231 | 37037 ft | 546 kts | 42° |
| 2026-05-06 14:44 | 35.16276 | -79.47017 | 37064 ft | 546 kts | 42° |
| 2026-05-06 14:45 | 35.23399 | -79.36223 | 37066 ft | 546 kts | 42° |
| 2026-05-06 14:45 | 35.28171 | -79.28978 | 37065 ft | 546 kts | 42° |
| 2026-05-06 14:46 | 35.32940 | -79.21723 | 37059 ft | 547 kts | 42° |
| 2026-05-06 14:46 | 35.37702 | -79.14459 | 37041 ft | 547 kts | 42° |
| 2026-05-06 14:47 | 35.42459 | -79.07185 | 37038 ft | 546 kts | 42° |
| 2026-05-06 14:47 | 35.47207 | -78.99909 | 37040 ft | 546 kts | 42° |
| 2026-05-06 14:48 | 35.51919 | -78.92673 | 37035 ft | 545 kts | 42° |
| 2026-05-06 14:48 | 35.56652 | -78.85390 | 37039 ft | 545 kts | 42° |
| 2026-05-06 14:49 | 35.61770 | -78.78744 | 37046 ft | 522 kts | 27° |
| 2026-05-06 14:49 | 35.64736 | -78.76257 | 37040 ft | 510 kts | 20° |
| 2026-05-06 14:49 | 35.67770 | -78.74019 | 37038 ft | 507 kts | 19° |
| 2026-05-06 14:50 | 35.73907 | -78.69749 | 37042 ft | 506 kts | 18° |
| 2026-05-06 14:50 | 35.80057 | -78.65534 | 37043 ft | 506 kts | 18° |
| 2026-05-06 14:51 | 35.86205 | -78.61277 | 37042 ft | 507 kts | 18° |
| 2026-05-06 14:51 | 35.92308 | -78.57017 | 37038 ft | 508 kts | 18° |
| 2026-05-06 14:52 | 35.98463 | -78.52704 | 37051 ft | 508 kts | 18° |
| 2026-05-06 14:52 | 36.04615 | -78.48388 | 37059 ft | 509 kts | 18° |
| 2026-05-06 14:53 | 36.10783 | -78.44053 | 37056 ft | 510 kts | 18° |
| 2026-05-06 14:53 | 36.16959 | -78.39704 | 37052 ft | 510 kts | 18° |
| 2026-05-06 14:54 | 36.23135 | -78.35349 | 37017 ft | 512 kts | 18° |
| 2026-05-06 14:54 | 36.26229 | -78.33162 | 37126 ft | 509 kts | 18° |
| 2026-05-06 14:54 | 36.29286 | -78.30990 | 37564 ft | 502 kts | 18° |
| 2026-05-06 14:54 | 36.32255 | -78.28875 | 37946 ft | 496 kts | 17° |
| 2026-05-06 14:55 | 36.35242 | -78.26740 | 38195 ft | 495 kts | 18° |
| 2026-05-06 14:55 | 36.38121 | -78.24293 | 38343 ft | 509 kts | 26° |
| 2026-05-06 14:55 | 36.40833 | -78.21406 | 38480 ft | 515 kts | 30° |
| 2026-05-06 14:55 | 36.43486 | -78.18398 | 38628 ft | 517 kts | 31° |
| 2026-05-06 14:56 | 36.46106 | -78.15332 | 38751 ft | 517 kts | 31° |
| 2026-05-06 14:56 | 36.48705 | -78.12248 | 38860 ft | 517 kts | 31° |
| 2026-05-06 14:56 | 36.51309 | -78.09145 | 39007 ft | 517 kts | 31° |
| 2026-05-06 14:57 | 36.56485 | -78.02998 | 39057 ft | 517 kts | 31° |
| 2026-05-06 14:57 | 36.61703 | -77.96824 | 39069 ft | 517 kts | 31° |
| 2026-05-06 14:58 | 36.66932 | -77.90642 | 39066 ft | 518 kts | 31° |
| 2026-05-06 14:58 | 36.72127 | -77.84488 | 39017 ft | 518 kts | 30° |
| 2026-05-06 14:59 | 36.77348 | -77.78288 | 39019 ft | 519 kts | 31° |
| 2026-05-06 14:59 | 36.82579 | -77.72077 | 39021 ft | 519 kts | 30° |
| 2026-05-06 15:00 | 36.87809 | -77.65847 | 39017 ft | 519 kts | 31° |
| 2026-05-06 15:00 | 36.93039 | -77.59603 | 39007 ft | 520 kts | 30° |
| 2026-05-06 15:01 | 36.98242 | -77.53380 | 39005 ft | 520 kts | 30° |
| 2026-05-06 15:01 | 37.03473 | -77.47113 | 39004 ft | 521 kts | 31° |
| 2026-05-06 15:02 | 37.08824 | -77.41058 | 39010 ft | 506 kts | 22° |
| 2026-05-06 15:02 | 37.11745 | -77.38747 | 39010 ft | 487 kts | 13° |
| 2026-05-06 15:02 | 37.14796 | -77.37052 | 39011 ft | 473 kts | 6° |
| 2026-05-06 15:03 | 37.20960 | -77.34247 | 39008 ft | 470 kts | 4° |
| 2026-05-06 15:03 | 37.27166 | -77.31615 | 39003 ft | 471 kts | 4° |
| 2026-05-06 15:04 | 37.33340 | -77.28980 | 38990 ft | 473 kts | 4° |
| 2026-05-06 15:04 | 37.39576 | -77.26278 | 38991 ft | 474 kts | 4° |
| 2026-05-06 15:05 | 37.45827 | -77.23551 | 38991 ft | 476 kts | 4° |
| 2026-05-06 15:05 | 37.52097 | -77.20809 | 38990 ft | 477 kts | 4° |
| 2026-05-06 15:06 | 37.58383 | -77.18057 | 38988 ft | 479 kts | 4° |
| 2026-05-06 15:06 | 37.64690 | -77.15292 | 38984 ft | 480 kts | 5° |
| 2026-05-06 15:07 | 37.70963 | -77.12059 | 38986 ft | 498 kts | 13° |
| 2026-05-06 15:07 | 37.77122 | -77.07940 | 38989 ft | 503 kts | 14° |
| 2026-05-06 15:08 | 37.83233 | -77.03680 | 38998 ft | 505 kts | 15° |
| 2026-05-06 15:08 | 37.89391 | -76.99373 | 38999 ft | 506 kts | 15° |
| 2026-05-06 15:09 | 37.95548 | -76.95083 | 39000 ft | 506 kts | 15° |
| 2026-05-06 15:09 | 38.01748 | -76.90768 | 38989 ft | 507 kts | 15° |
| 2026-05-06 15:10 | 38.07924 | -76.86461 | 38978 ft | 507 kts | 15° |
| 2026-05-06 15:10 | 38.14081 | -76.82160 | 38967 ft | 507 kts | 15° |
| 2026-05-06 15:11 | 38.20270 | -76.77829 | 38947 ft | 508 kts | 15° |
| 2026-05-06 15:11 | 38.26299 | -76.72893 | 38959 ft | 527 kts | 25° |
| 2026-05-06 15:12 | 38.32007 | -76.66916 | 38955 ft | 532 kts | 27° |
| 2026-05-06 15:12 | 38.37640 | -76.60773 | 38954 ft | 533 kts | 28° |
| 2026-05-06 15:13 | 38.43222 | -76.54671 | 38956 ft | 532 kts | 27° |
| 2026-05-06 15:13 | 38.48865 | -76.48583 | 38955 ft | 531 kts | 27° |
| 2026-05-06 15:14 | 38.54514 | -76.42527 | 38950 ft | 530 kts | 27° |
| 2026-05-06 15:14 | 38.60193 | -76.36429 | 38950 ft | 533 kts | 27° |
| 2026-05-06 15:15 | 38.65879 | -76.30299 | 38948 ft | 536 kts | 27° |
| 2026-05-06 15:15 | 38.71588 | -76.24123 | 38955 ft | 538 kts | 27° |
| 2026-05-06 15:16 | 38.77318 | -76.17908 | 38958 ft | 540 kts | 28° |
| 2026-05-06 15:16 | 38.83026 | -76.11702 | 38955 ft | 542 kts | 28° |
| 2026-05-06 15:17 | 38.88780 | -76.05434 | 38947 ft | 542 kts | 28° |
| 2026-05-06 15:17 | 38.93565 | -76.00211 | 38951 ft | 543 kts | 28° |
| 2026-05-06 15:18 | 38.99296 | -75.93866 | 38942 ft | 546 kts | 30° |
| 2026-05-06 15:18 | 39.04880 | -75.87178 | 38931 ft | 549 kts | 32° |
| 2026-05-06 15:19 | 39.10431 | -75.80422 | 38919 ft | 549 kts | 31° |
| 2026-05-06 15:19 | 39.15998 | -75.73708 | 38918 ft | 548 kts | 31° |
| 2026-05-06 15:20 | 39.21590 | -75.67002 | 38916 ft | 548 kts | 31° |
| 2026-05-06 15:20 | 39.27137 | -75.60349 | 38919 ft | 548 kts | 31° |
| 2026-05-06 15:21 | 39.32710 | -75.53652 | 38913 ft | 547 kts | 31° |
| 2026-05-06 15:21 | 39.38277 | -75.46938 | 38912 ft | 547 kts | 31° |
| 2026-05-06 15:22 | 39.43836 | -75.40210 | 38924 ft | 547 kts | 31° |
| 2026-05-06 15:22 | 39.49386 | -75.33481 | 38926 ft | 547 kts | 32° |
| 2026-05-06 15:23 | 39.54950 | -75.26722 | 38927 ft | 547 kts | 32° |
| 2026-05-06 15:23 | 39.60500 | -75.19964 | 38923 ft | 547 kts | 32° |
| 2026-05-06 15:24 | 39.66045 | -75.13198 | 38910 ft | 547 kts | 32° |
| 2026-05-06 15:24 | 39.71606 | -75.06565 | 38906 ft | 543 kts | 29° |
| 2026-05-06 15:25 | 39.77343 | -75.00189 | 38912 ft | 542 kts | 28° |
| 2026-05-06 15:25 | 39.83088 | -74.93829 | 38920 ft | 543 kts | 29° |
| 2026-05-06 15:26 | 39.88817 | -74.87405 | 38913 ft | 541 kts | 28° |
| 2026-05-06 15:26 | 39.94796 | -74.81624 | 38916 ft | 533 kts | 23° |
| 2026-05-06 15:27 | 40.00836 | -74.76034 | 38915 ft | 533 kts | 23° |
| 2026-05-06 15:27 | 40.03750 | -74.72944 | 38908 ft | 547 kts | 32° |
| 2026-05-06 15:27 | 40.06452 | -74.69400 | 38905 ft | 553 kts | 36° |
| 2026-05-06 15:28 | 40.11691 | -74.62004 | 38907 ft | 556 kts | 37° |
| 2026-05-06 15:28 | 40.16870 | -74.54461 | 38900 ft | 557 kts | 38° |
| 2026-05-06 15:29 | 40.22257 | -74.47447 | 38895 ft | 543 kts | 29° |
| 2026-05-06 15:29 | 40.28034 | -74.41123 | 38893 ft | 540 kts | 28° |
| 2026-05-06 15:30 | 40.33866 | -74.34914 | 38895 ft | 540 kts | 27° |
| 2026-05-06 15:30 | 40.39447 | -74.28970 | 38892 ft | 540 kts | 28° |
| 2026-05-06 15:31 | 40.45273 | -74.22724 | 38881 ft | 541 kts | 28° |
| 2026-05-06 15:31 | 40.51099 | -74.16450 | 38889 ft | 541 kts | 28° |
| 2026-05-06 15:32 | 40.58599 | -74.08358 | 38893 ft | 541 kts | 28° |
| 2026-05-06 15:32 | 40.64373 | -74.02106 | 38906 ft | 542 kts | 28° |
| 2026-05-06 15:33 | 40.70155 | -73.95823 | 38909 ft | 542 kts | 29° |
| 2026-05-06 15:33 | 40.76016 | -73.89444 | 38891 ft | 543 kts | 29° |
| 2026-05-06 15:34 | 40.81794 | -73.83144 | 38892 ft | 543 kts | 29° |
| 2026-05-06 15:34 | 40.87288 | -73.76104 | 38894 ft | 562 kts | 44° |
| 2026-05-06 15:35 | 40.91974 | -73.67730 | 38894 ft | 568 kts | 46° |
| 2026-05-06 15:35 | 40.96493 | -73.59141 | 38902 ft | 569 kts | 47° |
| 2026-05-06 15:36 | 41.01002 | -73.50509 | 38884 ft | 568 kts | 47° |
| 2026-05-06 15:36 | 41.05365 | -73.42198 | 38898 ft | 568 kts | 47° |
| 2026-05-06 15:37 | 41.09899 | -73.33580 | 38901 ft | 568 kts | 47° |
| 2026-05-06 15:37 | 41.14409 | -73.24989 | 38908 ft | 567 kts | 47° |
| 2026-05-06 15:38 | 41.18917 | -73.16373 | 38909 ft | 567 kts | 47° |
| 2026-05-06 15:38 | 41.23411 | -73.07759 | 38908 ft | 568 kts | 47° |
| 2026-05-06 15:39 | 41.27902 | -72.99126 | 38916 ft | 567 kts | 47° |
| 2026-05-06 15:39 | 41.32240 | -72.90394 | 38914 ft | 571 kts | 51° |
| 2026-05-06 15:40 | 41.36246 | -72.81240 | 38918 ft | 572 kts | 53° |
| 2026-05-06 15:40 | 41.40223 | -72.72047 | 38900 ft | 571 kts | 52° |
| 2026-05-06 15:41 | 41.44244 | -72.62934 | 38930 ft | 570 kts | 52° |
| 2026-05-06 15:41 | 41.48294 | -72.53831 | 38932 ft | 569 kts | 52° |
| 2026-05-06 15:42 | 41.52306 | -72.44802 | 38928 ft | 569 kts | 52° |
| 2026-05-06 15:42 | 41.56336 | -72.35695 | 38921 ft | 568 kts | 52° |
| 2026-05-06 15:43 | 41.60348 | -72.26596 | 38907 ft | 567 kts | 52° |
| 2026-05-06 15:43 | 41.64343 | -72.17505 | 38910 ft | 567 kts | 52° |
| 2026-05-06 15:44 | 41.68330 | -72.08408 | 38909 ft | 567 kts | 53° |
| 2026-05-06 15:44 | 41.72289 | -71.99344 | 38907 ft | 567 kts | 53° |
| 2026-05-06 15:45 | 41.76262 | -71.90221 | 38903 ft | 566 kts | 53° |
| 2026-05-06 15:45 | 41.79087 | -71.84304 | 38907 ft | 556 kts | 44° |
| 2026-05-06 15:46 | 41.81410 | -71.80828 | 38914 ft | 544 kts | 34° |
| 2026-05-06 15:46 | 41.84317 | -71.77710 | 38919 ft | 528 kts | 22° |
| 2026-05-06 15:46 | 41.87428 | -71.75179 | 38917 ft | 522 kts | 20° |
| 2026-05-06 15:47 | 41.93775 | -71.70500 | 38928 ft | 520 kts | 18° |
| 2026-05-06 15:47 | 42.00140 | -71.65954 | 38927 ft | 521 kts | 18° |
| 2026-05-06 15:48 | 42.06573 | -71.61311 | 38922 ft | 522 kts | 18° |
| 2026-05-06 15:48 | 42.12919 | -71.56678 | 38914 ft | 523 kts | 18° |
| 2026-05-06 15:49 | 42.19308 | -71.51988 | 38895 ft | 523 kts | 19° |
| 2026-05-06 15:49 | 42.25704 | -71.47284 | 38897 ft | 524 kts | 19° |
| 2026-05-06 15:50 | 42.32113 | -71.42562 | 38888 ft | 524 kts | 19° |
| 2026-05-06 15:50 | 42.38521 | -71.37830 | 38881 ft | 525 kts | 19° |
| 2026-05-06 15:51 | 42.44929 | -71.33086 | 38881 ft | 526 kts | 19° |
| 2026-05-06 15:51 | 42.51357 | -71.28317 | 38878 ft | 526 kts | 19° |
| 2026-05-06 15:52 | 42.57795 | -71.23527 | 38871 ft | 527 kts | 19° |
| 2026-05-06 15:52 | 42.64190 | -71.18760 | 38898 ft | 528 kts | 19° |
| 2026-05-06 15:53 | 42.70639 | -71.13941 | 38899 ft | 529 kts | 19° |
| 2026-05-06 15:53 | 42.77097 | -71.09104 | 38899 ft | 530 kts | 19° |
| 2026-05-06 15:54 | 42.83557 | -71.04253 | 38894 ft | 531 kts | 19° |
| 2026-05-06 15:54 | 42.89995 | -70.99407 | 38881 ft | 531 kts | 19° |
| 2026-05-06 15:55 | 42.96467 | -70.94523 | 38853 ft | 532 kts | 19° |
| 2026-05-06 15:55 | 43.02946 | -70.89622 | 38855 ft | 532 kts | 20° |
| 2026-05-06 15:56 | 43.09424 | -70.84711 | 38855 ft | 532 kts | 20° |
| 2026-05-06 15:56 | 43.15905 | -70.79787 | 38857 ft | 532 kts | 20° |
| 2026-05-06 15:57 | 43.22389 | -70.74849 | 38850 ft | 532 kts | 20° |
| 2026-05-06 15:57 | 43.28832 | -70.69929 | 38869 ft | 533 kts | 20° |
| 2026-05-06 15:58 | 43.35321 | -70.64959 | 38874 ft | 533 kts | 20° |
| 2026-05-06 15:58 | 43.41800 | -70.59985 | 38869 ft | 533 kts | 20° |
| 2026-05-06 15:59 | 43.48274 | -70.55004 | 38868 ft | 533 kts | 20° |
| 2026-05-06 15:59 | 43.54757 | -70.50003 | 38868 ft | 534 kts | 20° |
| 2026-05-06 16:00 | 43.61202 | -70.45019 | 38880 ft | 534 kts | 20° |
| 2026-05-06 16:00 | 43.67699 | -70.39982 | 38876 ft | 534 kts | 21° |
| 2026-05-06 16:01 | 43.74189 | -70.34939 | 38881 ft | 535 kts | 21° |
| 2026-05-06 16:01 | 43.80686 | -70.29878 | 38885 ft | 535 kts | 21° |
| 2026-05-06 16:02 | 43.87171 | -70.24813 | 38873 ft | 536 kts | 21° |
| 2026-05-06 16:02 | 43.92577 | -70.20580 | 38874 ft | 536 kts | 21° |
| 2026-05-06 16:03 | 43.99072 | -70.15484 | 38879 ft | 536 kts | 21° |
| 2026-05-06 16:03 | 44.05567 | -70.10375 | 38881 ft | 537 kts | 21° |
| 2026-05-06 16:04 | 44.12081 | -70.05238 | 38880 ft | 537 kts | 22° |
| 2026-05-06 16:04 | 44.18584 | -70.00094 | 38874 ft | 537 kts | 22° |
| 2026-05-06 16:05 | 44.25047 | -69.94971 | 38877 ft | 537 kts | 22° |
| 2026-05-06 16:05 | 44.31544 | -69.89808 | 38881 ft | 537 kts | 22° |
| 2026-05-06 16:06 | 44.38051 | -69.84624 | 38880 ft | 538 kts | 22° |
| 2026-05-06 16:06 | 44.44551 | -69.79432 | 38880 ft | 538 kts | 22° |
| 2026-05-06 16:07 | 44.51048 | -69.74228 | 38854 ft | 538 kts | 23° |
| 2026-05-06 16:07 | 44.57547 | -69.69009 | 38856 ft | 538 kts | 23° |
| 2026-05-06 16:08 | 44.64020 | -69.63798 | 38858 ft | 539 kts | 23° |
| 2026-05-06 16:08 | 44.70525 | -69.58547 | 38850 ft | 539 kts | 23° |
| 2026-05-06 16:09 | 44.77027 | -69.53284 | 38844 ft | 539 kts | 23° |
| 2026-05-06 16:09 | 44.83536 | -69.48003 | 38843 ft | 539 kts | 24° |
| 2026-05-06 16:10 | 44.90026 | -69.42722 | 38845 ft | 539 kts | 24° |
| 2026-05-06 16:10 | 44.96528 | -69.37419 | 38844 ft | 539 kts | 24° |
| 2026-05-06 16:11 | 45.02986 | -69.32138 | 38847 ft | 540 kts | 24° |
| 2026-05-06 16:11 | 45.09486 | -69.26807 | 38845 ft | 540 kts | 24° |
| 2026-05-06 16:12 | 45.15990 | -69.21460 | 38852 ft | 540 kts | 24° |
| 2026-05-06 16:12 | 45.22503 | -69.16091 | 38847 ft | 541 kts | 24° |
| 2026-05-06 16:13 | 45.29006 | -69.10715 | 38863 ft | 541 kts | 24° |
| 2026-05-06 16:13 | 45.35473 | -69.05355 | 38860 ft | 541 kts | 24° |
| 2026-05-06 16:14 | 45.41984 | -68.99943 | 38879 ft | 541 kts | 24° |
| 2026-05-06 16:14 | 45.48486 | -68.94524 | 38883 ft | 541 kts | 24° |
| 2026-05-06 16:15 | 45.54987 | -68.89093 | 38883 ft | 542 kts | 24° |
| 2026-05-06 16:15 | 45.61498 | -68.83637 | 38890 ft | 542 kts | 25° |
| 2026-05-06 16:16 | 45.68011 | -68.78164 | 38891 ft | 543 kts | 25° |
| 2026-05-06 16:16 | 45.74525 | -68.72678 | 38891 ft | 543 kts | 25° |
| 2026-05-06 16:17 | 45.81045 | -68.67172 | 38897 ft | 545 kts | 25° |
| 2026-05-06 16:17 | 45.87535 | -68.61676 | 38897 ft | 545 kts | 25° |
| 2026-05-06 16:18 | 45.94065 | -68.56129 | 38907 ft | 545 kts | 25° |
| 2026-05-06 16:18 | 46.00594 | -68.50567 | 38908 ft | 545 kts | 25° |
| 2026-05-06 16:19 | 46.07120 | -68.44992 | 38917 ft | 545 kts | 25° |
| 2026-05-06 16:19 | 46.13636 | -68.39411 | 38921 ft | 544 kts | 25° |
| 2026-05-06 16:20 | 46.20147 | -68.33819 | 38935 ft | 544 kts | 25° |
| 2026-05-06 16:20 | 46.26659 | -68.28210 | 38935 ft | 544 kts | 25° |
| 2026-05-06 16:21 | 46.33153 | -68.22601 | 38938 ft | 544 kts | 26° |
| 2026-05-06 16:21 | 46.39615 | -68.17004 | 38936 ft | 544 kts | 26° |
| 2026-05-06 16:22 | 46.46105 | -68.11368 | 38924 ft | 544 kts | 26° |
| 2026-05-06 16:22 | 46.52594 | -68.05716 | 38911 ft | 544 kts | 26° |
| 2026-05-06 16:23 | 46.59090 | -68.00042 | 38900 ft | 544 kts | 26° |
| 2026-05-06 16:23 | 46.65574 | -67.94361 | 38899 ft | 544 kts | 26° |
| 2026-05-06 16:24 | 46.72056 | -67.88668 | 38902 ft | 544 kts | 26° |
| 2026-05-06 16:24 | 46.78534 | -67.82962 | 38907 ft | 544 kts | 26° |
| 2026-05-06 16:25 | 46.84968 | -67.77279 | 38908 ft | 544 kts | 26° |
| 2026-05-06 16:25 | 46.91447 | -67.71539 | 38898 ft | 544 kts | 26° |
| 2026-05-06 16:26 | 46.97935 | -67.65776 | 38895 ft | 544 kts | 26° |
| 2026-05-06 16:26 | 47.04403 | -67.60013 | 38890 ft | 544 kts | 26° |
| 2026-05-06 16:27 | 47.10872 | -67.54232 | 38884 ft | 545 kts | 26° |
| 2026-05-06 16:27 | 47.17344 | -67.48432 | 38888 ft | 545 kts | 26° |
| 2026-05-06 16:28 | 47.23813 | -67.42618 | 38884 ft | 545 kts | 27° |
| 2026-05-06 16:28 | 47.30272 | -67.36797 | 38890 ft | 545 kts | 27° |
| 2026-05-06 16:29 | 47.36588 | -67.30577 | 38891 ft | 550 kts | 37° |
| 2026-05-06 16:29 | 47.41783 | -67.22295 | 38884 ft | 555 kts | 48° |
| 2026-05-06 16:30 | 47.45826 | -67.14841 | 38887 ft | 555 kts | 50° |
| 2026-05-06 16:30 | 47.51352 | -67.04373 | 38883 ft | 555 kts | 50° |
| 2026-05-06 16:31 | 47.56109 | -66.95380 | 38883 ft | 554 kts | 50° |
| 2026-05-06 16:31 | 47.60871 | -66.86407 | 38883 ft | 553 kts | 50° |
| 2026-05-06 16:32 | 47.65596 | -66.77490 | 38884 ft | 553 kts | 50° |
| 2026-05-06 16:32 | 47.70334 | -66.68517 | 38873 ft | 552 kts | 50° |
| 2026-05-06 16:33 | 47.75064 | -66.59530 | 38886 ft | 551 kts | 50° |
| 2026-05-06 16:34 | 47.82127 | -66.46047 | 38880 ft | 550 kts | 50° |
| 2026-05-06 16:34 | 47.86791 | -66.37110 | 38881 ft | 549 kts | 50° |
| 2026-05-06 16:35 | 47.91470 | -66.28113 | 38881 ft | 549 kts | 50° |
| 2026-05-06 16:35 | 47.96141 | -66.19102 | 38884 ft | 549 kts | 50° |
| 2026-05-06 16:36 | 48.00802 | -66.10082 | 38879 ft | 548 kts | 50° |
| 2026-05-06 16:36 | 48.05458 | -66.01039 | 38883 ft | 548 kts | 50° |
| 2026-05-06 16:37 | 48.10084 | -65.92025 | 38882 ft | 548 kts | 50° |
| 2026-05-06 16:37 | 48.14719 | -65.82964 | 38884 ft | 548 kts | 51° |
| 2026-05-06 16:38 | 48.19337 | -65.73905 | 38883 ft | 547 kts | 51° |
| 2026-05-06 16:38 | 48.23952 | -65.64823 | 38887 ft | 547 kts | 51° |
| 2026-05-06 16:39 | 48.28550 | -65.55742 | 38888 ft | 546 kts | 51° |
| 2026-05-06 16:39 | 48.33143 | -65.46641 | 38893 ft | 546 kts | 51° |
| 2026-05-06 16:40 | 48.37723 | -65.37536 | 38885 ft | 545 kts | 51° |
| 2026-05-06 16:40 | 48.42290 | -65.28425 | 38887 ft | 544 kts | 51° |
| 2026-05-06 16:41 | 48.46814 | -65.19371 | 38887 ft | 544 kts | 51° |
| 2026-05-06 16:41 | 48.51365 | -65.10232 | 38884 ft | 544 kts | 51° |
| 2026-05-06 16:42 | 48.55904 | -65.01088 | 38883 ft | 545 kts | 51° |
| 2026-05-06 16:42 | 48.60438 | -64.91918 | 38886 ft | 545 kts | 51° |
| 2026-05-06 16:43 | 48.64966 | -64.82731 | 38888 ft | 544 kts | 51° |
| 2026-05-06 16:43 | 48.69481 | -64.73541 | 38893 ft | 544 kts | 51° |
| 2026-05-06 16:44 | 48.73966 | -64.64381 | 38896 ft | 544 kts | 51° |
| 2026-05-06 16:44 | 48.78464 | -64.55163 | 38896 ft | 543 kts | 52° |
| 2026-05-06 16:45 | 48.82953 | -64.45929 | 38897 ft | 543 kts | 52° |
| 2026-05-06 16:45 | 48.87423 | -64.36702 | 38898 ft | 542 kts | 52° |
| 2026-05-06 16:46 | 48.91882 | -64.27469 | 38895 ft | 542 kts | 52° |
| 2026-05-06 16:46 | 48.96315 | -64.18259 | 38896 ft | 541 kts | 52° |
| 2026-05-06 16:47 | 49.00757 | -64.08997 | 38899 ft | 542 kts | 52° |
| 2026-05-06 16:47 | 49.05200 | -63.99701 | 38898 ft | 542 kts | 52° |
| 2026-05-06 16:48 | 49.09634 | -63.90390 | 38897 ft | 543 kts | 52° |
| 2026-05-06 16:48 | 49.13323 | -63.82620 | 38903 ft | 544 kts | 52° |
| 2026-05-06 16:49 | 49.17756 | -63.73250 | 38888 ft | 544 kts | 52° |
| 2026-05-06 16:49 | 49.22182 | -63.63866 | 38906 ft | 544 kts | 52° |
| 2026-05-06 16:50 | 49.26605 | -63.54453 | 38907 ft | 544 kts | 52° |
| 2026-05-06 16:50 | 49.31023 | -63.45019 | 38916 ft | 545 kts | 52° |
| 2026-05-06 16:51 | 49.35406 | -63.35628 | 38911 ft | 544 kts | 52° |
| 2026-05-06 16:51 | 49.39808 | -63.26159 | 38908 ft | 545 kts | 52° |
| 2026-05-06 16:52 | 49.44205 | -63.16670 | 38912 ft | 545 kts | 52° |
| 2026-05-06 16:52 | 49.48585 | -63.07181 | 38915 ft | 545 kts | 52° |
| 2026-05-06 16:53 | 49.52969 | -62.97651 | 38907 ft | 544 kts | 52° |
| 2026-05-06 16:53 | 49.57310 | -62.88183 | 38905 ft | 544 kts | 52° |
| 2026-05-06 16:54 | 49.61662 | -62.78656 | 38913 ft | 543 kts | 52° |
| 2026-05-06 16:54 | 49.66009 | -62.69105 | 38912 ft | 543 kts | 52° |
| 2026-05-06 16:55 | 49.70341 | -62.59551 | 38911 ft | 543 kts | 52° |
| 2026-05-06 16:55 | 49.74661 | -62.49990 | 38906 ft | 542 kts | 52° |
| 2026-05-06 16:56 | 49.78969 | -62.40423 | 38902 ft | 542 kts | 53° |
| 2026-05-06 16:56 | 49.83272 | -62.30833 | 38907 ft | 541 kts | 53° |
| 2026-05-06 16:57 | 49.87556 | -62.21249 | 38909 ft | 540 kts | 53° |
| 2026-05-06 16:57 | 49.91797 | -62.11725 | 38913 ft | 539 kts | 53° |
| 2026-05-06 16:58 | 49.96044 | -62.02156 | 38912 ft | 538 kts | 53° |
| 2026-05-06 16:58 | 50.00278 | -61.92581 | 38917 ft | 536 kts | 53° |
| 2026-05-06 16:59 | 50.04492 | -61.83016 | 38918 ft | 535 kts | 53° |
| 2026-05-06 16:59 | 50.08691 | -61.73449 | 38920 ft | 534 kts | 53° |
| 2026-05-06 17:00 | 50.12871 | -61.63896 | 38922 ft | 533 kts | 53° |
| 2026-05-06 17:00 | 50.17043 | -61.54322 | 38927 ft | 533 kts | 53° |
| 2026-05-06 17:01 | 50.21201 | -61.44747 | 38928 ft | 533 kts | 54° |
| 2026-05-06 17:01 | 50.25350 | -61.35159 | 38927 ft | 532 kts | 54° |
| 2026-05-06 17:02 | 50.29488 | -61.25559 | 38929 ft | 532 kts | 54° |
| 2026-05-06 17:02 | 50.33614 | -61.15953 | 38930 ft | 532 kts | 54° |
| 2026-05-06 17:03 | 50.37707 | -61.06389 | 38933 ft | 532 kts | 54° |
| 2026-05-06 17:03 | 50.41817 | -60.96750 | 38929 ft | 532 kts | 54° |
| 2026-05-06 17:04 | 50.45924 | -60.87082 | 38928 ft | 531 kts | 54° |
| 2026-05-06 17:04 | 50.50016 | -60.77417 | 38930 ft | 532 kts | 54° |
| 2026-05-06 17:05 | 50.54104 | -60.67722 | 38932 ft | 532 kts | 54° |
| 2026-05-06 17:05 | 50.58186 | -60.58007 | 38930 ft | 532 kts | 55° |
| 2026-05-06 17:06 | 50.62262 | -60.48269 | 38926 ft | 533 kts | 55° |
| 2026-05-06 17:06 | 50.66333 | -60.38508 | 38923 ft | 534 kts | 55° |
| 2026-05-06 17:07 | 50.70380 | -60.28767 | 38923 ft | 534 kts | 55° |
| 2026-05-06 17:07 | 50.74450 | -60.18935 | 38921 ft | 535 kts | 55° |
| 2026-05-06 17:08 | 50.78515 | -60.09076 | 38919 ft | 535 kts | 55° |
| 2026-05-06 17:08 | 50.82573 | -59.99200 | 38915 ft | 536 kts | 56° |
| 2026-05-06 17:09 | 50.86632 | -59.89281 | 38916 ft | 536 kts | 56° |
| 2026-05-06 17:09 | 50.90680 | -59.79353 | 38916 ft | 536 kts | 56° |
| 2026-05-06 17:10 | 50.94721 | -59.69402 | 38916 ft | 537 kts | 56° |
| 2026-05-06 17:10 | 50.98729 | -59.59496 | 38913 ft | 537 kts | 56° |
| 2026-05-06 17:11 | 51.02758 | -59.49498 | 38915 ft | 537 kts | 56° |
| 2026-05-06 17:11 | 51.06784 | -59.39471 | 38916 ft | 538 kts | 56° |
| 2026-05-06 17:12 | 51.10807 | -59.29412 | 38916 ft | 538 kts | 56° |
| 2026-05-06 17:12 | 51.14819 | -59.19341 | 38918 ft | 539 kts | 56° |
| 2026-05-06 17:13 | 51.18825 | -59.09246 | 38920 ft | 539 kts | 56° |
| 2026-05-06 17:13 | 51.22824 | -58.99131 | 38922 ft | 539 kts | 57° |
| 2026-05-06 17:14 | 51.26790 | -58.89057 | 38924 ft | 540 kts | 57° |
| 2026-05-06 17:14 | 51.30777 | -58.78891 | 38926 ft | 540 kts | 57° |
| 2026-05-06 17:15 | 51.34758 | -58.68699 | 38927 ft | 540 kts | 57° |
| 2026-05-06 17:15 | 51.38726 | -58.58502 | 38929 ft | 540 kts | 57° |
| 2026-05-06 17:16 | 51.42692 | -58.48268 | 38935 ft | 540 kts | 57° |
| 2026-05-06 17:16 | 51.46644 | -58.38032 | 38936 ft | 540 kts | 57° |
| 2026-05-06 17:17 | 51.50593 | -58.27761 | 38937 ft | 540 kts | 57° |
| 2026-05-06 17:17 | 51.54535 | -58.17468 | 38940 ft | 541 kts | 57° |
| 2026-05-06 17:18 | 51.58465 | -58.07162 | 38938 ft | 541 kts | 58° |
| 2026-05-06 17:18 | 51.62384 | -57.96846 | 38932 ft | 541 kts | 58° |
| 2026-05-06 17:19 | 51.66279 | -57.86552 | 38947 ft | 542 kts | 58° |
| 2026-05-06 17:19 | 51.70185 | -57.76185 | 38930 ft | 542 kts | 58° |
| 2026-05-06 17:19 | 51.72137 | -57.70988 | 39069 ft | 538 kts | 58° |
| 2026-05-06 17:20 | 51.74065 | -57.65847 | 39092 ft | 533 kts | 59° |
| 2026-05-06 17:20 | 51.75988 | -57.60713 | 38987 ft | 538 kts | 59° |
| 2026-05-06 17:20 | 51.77926 | -57.55521 | 38952 ft | 542 kts | 59° |
| 2026-05-06 17:21 | 51.81822 | -57.45052 | 39153 ft | 542 kts | 59° |
| 2026-05-06 17:21 | 51.83758 | -57.39834 | 39298 ft | 541 kts | 59° |
| 2026-05-06 17:21 | 51.85688 | -57.34622 | 39444 ft | 540 kts | 59° |
| 2026-05-06 17:21 | 51.87613 | -57.29414 | 39554 ft | 539 kts | 59° |
| 2026-05-06 17:22 | 51.89533 | -57.24209 | 39664 ft | 539 kts | 59° |
| 2026-05-06 17:22 | 51.91459 | -57.18977 | 39779 ft | 539 kts | 59° |
| 2026-05-06 17:22 | 51.93372 | -57.13769 | 39881 ft | 538 kts | 59° |
| 2026-05-06 17:22 | 51.95285 | -57.08550 | 39983 ft | 538 kts | 59° |
| 2026-05-06 17:23 | 51.97198 | -57.03319 | 40080 ft | 538 kts | 59° |
| 2026-05-06 17:23 | 52.00983 | -56.92941 | 40246 ft | 538 kts | 59° |
| 2026-05-06 17:24 | 52.04782 | -56.82479 | 40421 ft | 537 kts | 59° |
| 2026-05-06 17:24 | 52.08574 | -56.71996 | 40573 ft | 537 kts | 59° |
| 2026-05-06 17:25 | 52.12351 | -56.61508 | 40712 ft | 536 kts | 59° |
| 2026-05-06 17:25 | 52.16091 | -56.51083 | 40840 ft | 536 kts | 59° |
| 2026-05-06 17:26 | 52.19845 | -56.40574 | 40909 ft | 537 kts | 59° |
| 2026-05-06 17:26 | 52.23594 | -56.30034 | 40899 ft | 537 kts | 60° |
| 2026-05-06 17:27 | 52.27332 | -56.19481 | 40891 ft | 536 kts | 60° |
| 2026-05-06 17:27 | 52.31060 | -56.08911 | 40889 ft | 536 kts | 60° |
| 2026-05-06 17:28 | 52.34773 | -55.98340 | 40888 ft | 536 kts | 60° |
| 2026-05-06 17:28 | 52.38452 | -55.87822 | 40891 ft | 536 kts | 60° |
| 2026-05-06 17:29 | 52.42091 | -55.77158 | 40889 ft | 536 kts | 63° |
| 2026-05-06 17:29 | 52.45424 | -55.66231 | 40875 ft | 535 kts | 64° |
| 2026-05-06 17:30 | 52.48698 | -55.55260 | 40863 ft | 535 kts | 64° |
| 2026-05-06 17:30 | 52.52004 | -55.44315 | 40862 ft | 535 kts | 64° |
| 2026-05-06 17:31 | 52.55330 | -55.33367 | 40861 ft | 535 kts | 64° |
| 2026-05-06 17:31 | 52.58645 | -55.22432 | 40878 ft | 535 kts | 64° |
| 2026-05-06 17:32 | 52.61951 | -55.11471 | 40880 ft | 535 kts | 64° |
| 2026-05-06 17:32 | 52.65220 | -55.00575 | 40878 ft | 535 kts | 64° |
| 2026-05-06 17:33 | 52.68506 | -54.89574 | 40872 ft | 535 kts | 64° |
| 2026-05-06 17:33 | 52.71779 | -54.78560 | 40885 ft | 535 kts | 64° |
| 2026-05-06 17:34 | 52.75044 | -54.67527 | 40884 ft | 535 kts | 64° |
| 2026-05-06 17:34 | 52.77750 | -54.58343 | 40885 ft | 535 kts | 64° |
| 2026-05-06 17:35 | 52.80995 | -54.47283 | 40892 ft | 534 kts | 64° |
| 2026-05-06 17:35 | 52.84755 | -54.34403 | 40890 ft | 534 kts | 64° |
| 2026-05-06 17:36 | 52.89060 | -54.19569 | 40890 ft | 534 kts | 64° |
| 2026-05-06 17:36 | 52.92266 | -54.08458 | 40897 ft | 534 kts | 64° |
| 2026-05-06 17:37 | 52.95458 | -53.97348 | 40897 ft | 534 kts | 64° |
| 2026-05-06 17:37 | 52.98621 | -53.86283 | 40896 ft | 534 kts | 65° |
| 2026-05-06 17:38 | 53.01793 | -53.75135 | 40899 ft | 534 kts | 65° |
| 2026-05-06 17:38 | 53.04955 | -53.63971 | 40904 ft | 533 kts | 65° |
| 2026-05-06 17:39 | 53.08108 | -53.52784 | 40903 ft | 533 kts | 65° |
| 2026-05-06 17:39 | 53.11245 | -53.41601 | 40903 ft | 533 kts | 65° |
| 2026-05-06 17:40 | 53.14372 | -53.30398 | 40907 ft | 533 kts | 65° |
| 2026-05-06 17:40 | 53.17465 | -53.19266 | 40909 ft | 533 kts | 65° |
| 2026-05-06 17:41 | 53.20568 | -53.08044 | 40913 ft | 532 kts | 65° |
| 2026-05-06 17:41 | 53.23657 | -52.96818 | 40913 ft | 532 kts | 65° |
| 2026-05-06 17:42 | 53.26738 | -52.85564 | 40918 ft | 531 kts | 65° |
| 2026-05-06 17:42 | 53.29801 | -52.74323 | 40919 ft | 531 kts | 65° |
| 2026-05-06 17:43 | 53.32849 | -52.63082 | 40922 ft | 531 kts | 65° |
| 2026-05-06 17:43 | 53.35898 | -52.51783 | 40924 ft | 533 kts | 65° |
| 2026-05-06 17:44 | 53.38922 | -52.40522 | 40926 ft | 535 kts | 65° |
| 2026-05-06 17:44 | 53.41972 | -52.29105 | 40926 ft | 536 kts | 65° |
| 2026-05-06 17:45 | 53.45011 | -52.17673 | 40931 ft | 537 kts | 65° |
| 2026-05-06 17:45 | 53.48042 | -52.06213 | 40932 ft | 537 kts | 65° |
| 2026-05-06 17:46 | 53.51065 | -51.94727 | 40934 ft | 537 kts | 65° |
| 2026-05-06 17:46 | 53.54076 | -51.83226 | 40936 ft | 537 kts | 65° |
| 2026-05-06 17:47 | 53.57053 | -51.71798 | 40940 ft | 536 kts | 65° |
| 2026-05-06 17:47 | 53.60033 | -51.60299 | 40946 ft | 536 kts | 66° |
| 2026-05-06 17:48 | 53.63001 | -51.48788 | 40947 ft | 535 kts | 66° |
| 2026-05-06 17:48 | 53.65955 | -51.37275 | 40944 ft | 535 kts | 66° |
| 2026-05-06 17:49 | 53.68892 | -51.25765 | 40952 ft | 534 kts | 66° |
| 2026-05-06 17:49 | 53.71822 | -51.14226 | 40953 ft | 534 kts | 66° |
| 2026-05-06 17:50 | 53.74740 | -51.02676 | 40956 ft | 533 kts | 66° |
| 2026-05-06 17:50 | 53.77636 | -50.91151 | 40955 ft | 533 kts | 66° |
| 2026-05-06 17:51 | 53.80507 | -50.79666 | 40961 ft | 532 kts | 66° |
| 2026-05-06 17:51 | 53.83374 | -50.68135 | 40964 ft | 532 kts | 66° |
| 2026-05-06 17:52 | 53.86233 | -50.56581 | 40968 ft | 531 kts | 66° |
| 2026-05-06 17:52 | 53.89081 | -50.45005 | 40967 ft | 531 kts | 66° |
| 2026-05-06 17:53 | 53.91910 | -50.33449 | 40964 ft | 530 kts | 66° |
| 2026-05-06 17:53 | 53.94728 | -50.21878 | 40968 ft | 530 kts | 66° |
| 2026-05-06 17:54 | 53.97532 | -50.10298 | 40969 ft | 530 kts | 66° |
| 2026-05-06 17:54 | 54.00127 | -49.98590 | 40985 ft | 530 kts | 74° |
| 2026-05-06 17:55 | 54.01997 | -49.86472 | 40978 ft | 530 kts | 75° |
| 2026-05-06 17:55 | 54.03719 | -49.74369 | 40979 ft | 530 kts | 76° |
| 2026-05-06 17:56 | 54.05424 | -49.62171 | 40981 ft | 529 kts | 76° |
| 2026-05-06 17:56 | 54.07128 | -49.49980 | 40985 ft | 529 kts | 76° |
| 2026-05-06 17:57 | 54.08825 | -49.37795 | 40990 ft | 529 kts | 76° |
| 2026-05-06 17:57 | 54.10516 | -49.25575 | 40999 ft | 529 kts | 76° |
| 2026-05-06 17:58 | 54.12189 | -49.13378 | 41001 ft | 528 kts | 76° |
| 2026-05-06 17:58 | 54.13848 | -49.01183 | 41008 ft | 528 kts | 76° |
| 2026-05-06 17:59 | 54.15496 | -48.88972 | 41010 ft | 528 kts | 76° |
| 2026-05-06 17:59 | 54.17130 | -48.76759 | 41019 ft | 527 kts | 76° |
| 2026-05-06 18:00 | 54.18738 | -48.64632 | 41022 ft | 527 kts | 76° |
| 2026-05-06 18:00 | 54.20345 | -48.52417 | 41024 ft | 527 kts | 76° |
| 2026-05-06 18:01 | 54.21940 | -48.40194 | 41030 ft | 527 kts | 76° |
| 2026-05-06 18:01 | 54.23521 | -48.27968 | 41037 ft | 526 kts | 76° |
| 2026-05-06 18:02 | 54.25088 | -48.15752 | 41040 ft | 526 kts | 76° |
| 2026-05-06 18:02 | 54.26643 | -48.03519 | 41048 ft | 525 kts | 76° |
| 2026-05-06 18:03 | 54.28171 | -47.91395 | 41052 ft | 525 kts | 76° |
| 2026-05-06 18:03 | 54.29698 | -47.79166 | 41051 ft | 524 kts | 76° |
| 2026-05-06 18:04 | 54.31209 | -47.66963 | 41059 ft | 524 kts | 77° |
| 2026-05-06 18:04 | 54.32708 | -47.54749 | 41060 ft | 523 kts | 77° |
| 2026-05-06 18:05 | 54.34194 | -47.42531 | 41068 ft | 523 kts | 77° |
| 2026-05-06 18:05 | 54.35665 | -47.30324 | 41071 ft | 523 kts | 77° |
| 2026-05-06 18:06 | 54.37114 | -47.18191 | 41074 ft | 522 kts | 77° |
| 2026-05-06 18:06 | 54.38569 | -47.05900 | 41079 ft | 522 kts | 77° |
| 2026-05-06 18:07 | 54.39990 | -46.93780 | 41084 ft | 522 kts | 77° |
| 2026-05-06 18:07 | 54.41408 | -46.81572 | 41087 ft | 521 kts | 77° |
| 2026-05-06 18:08 | 54.42813 | -46.69361 | 41094 ft | 521 kts | 77° |
| 2026-05-06 18:08 | 54.44206 | -46.57139 | 41099 ft | 520 kts | 77° |
| 2026-05-06 18:09 | 54.45586 | -46.44913 | 41106 ft | 520 kts | 77° |
| 2026-05-06 18:09 | 54.46943 | -46.32782 | 41107 ft | 520 kts | 77° |
| 2026-05-06 18:10 | 54.48295 | -46.20570 | 41113 ft | 519 kts | 77° |
| 2026-05-06 18:10 | 54.49634 | -46.08361 | 41116 ft | 519 kts | 77° |
| 2026-05-06 18:11 | 54.50737 | -45.98212 | 41120 ft | 519 kts | 77° |
| 2026-05-06 18:11 | 54.52273 | -45.83934 | 41122 ft | 519 kts | 77° |
| 2026-05-06 18:12 | 54.53574 | -45.71713 | 41125 ft | 519 kts | 78° |
| 2026-05-06 18:12 | 54.54863 | -45.59480 | 41129 ft | 519 kts | 78° |
| 2026-05-06 18:13 | 54.56132 | -45.47312 | 41133 ft | 519 kts | 78° |
| 2026-05-06 18:13 | 54.57396 | -45.35063 | 41134 ft | 519 kts | 78° |
| 2026-05-06 18:14 | 54.58653 | -45.22755 | 41139 ft | 520 kts | 78° |
| 2026-05-06 18:14 | 54.59895 | -45.10462 | 41140 ft | 520 kts | 78° |
| 2026-05-06 18:15 | 54.61119 | -44.98223 | 41147 ft | 520 kts | 78° |
| 2026-05-06 18:15 | 54.62338 | -44.85901 | 41138 ft | 520 kts | 78° |
| 2026-05-06 18:16 | 54.63544 | -44.73576 | 41144 ft | 520 kts | 78° |
| 2026-05-06 18:16 | 54.64736 | -44.61253 | 41150 ft | 520 kts | 78° |
| 2026-05-06 18:17 | 54.65908 | -44.49008 | 41150 ft | 520 kts | 78° |
| 2026-05-06 18:17 | 54.67073 | -44.36695 | 41152 ft | 519 kts | 78° |
| 2026-05-06 18:18 | 54.68226 | -44.24369 | 41158 ft | 519 kts | 78° |
| 2026-05-06 18:18 | 54.69364 | -44.12066 | 41155 ft | 519 kts | 78° |
| 2026-05-06 18:19 | 54.70490 | -43.99754 | 41156 ft | 518 kts | 78° |
| 2026-05-06 18:19 | 54.71603 | -43.87437 | 41161 ft | 518 kts | 79° |
| 2026-05-06 18:20 | 54.72696 | -43.75199 | 41167 ft | 518 kts | 79° |
| 2026-05-06 18:20 | 54.73790 | -43.62801 | 41167 ft | 517 kts | 79° |
| 2026-05-06 18:21 | 54.74858 | -43.50557 | 41166 ft | 517 kts | 79° |
| 2026-05-06 18:21 | 54.75919 | -43.38239 | 41168 ft | 517 kts | 79° |
| 2026-05-06 18:22 | 54.76966 | -43.25936 | 41174 ft | 516 kts | 79° |
| 2026-05-06 18:22 | 54.77827 | -43.15701 | 41171 ft | 516 kts | 79° |
| 2026-05-06 18:23 | 54.78851 | -43.03383 | 41171 ft | 516 kts | 79° |
| 2026-05-06 18:23 | 54.79862 | -42.91067 | 41175 ft | 516 kts | 79° |
| 2026-05-06 18:24 | 54.80860 | -42.78749 | 41173 ft | 515 kts | 79° |
| 2026-05-06 18:24 | 54.81845 | -42.66437 | 41177 ft | 515 kts | 79° |
| 2026-05-06 18:25 | 54.82813 | -42.54170 | 41180 ft | 515 kts | 79° |
| 2026-05-06 18:25 | 54.83772 | -42.41864 | 41183 ft | 515 kts | 79° |
| 2026-05-06 18:26 | 54.84718 | -42.29551 | 41175 ft | 514 kts | 80° |
| 2026-05-06 18:26 | 54.85651 | -42.17235 | 41184 ft | 514 kts | 80° |
| 2026-05-06 18:27 | 54.86572 | -42.04918 | 41185 ft | 514 kts | 80° |
| 2026-05-06 18:27 | 54.87473 | -41.92693 | 41185 ft | 514 kts | 80° |
| 2026-05-06 18:28 | 54.88369 | -41.80370 | 41186 ft | 514 kts | 80° |
| 2026-05-06 18:28 | 54.89251 | -41.68052 | 41181 ft | 513 kts | 80° |
| 2026-05-06 18:29 | 54.90121 | -41.55718 | 41183 ft | 513 kts | 80° |
| 2026-05-06 18:29 | 54.90978 | -41.43400 | 41179 ft | 513 kts | 80° |
| 2026-05-06 18:30 | 54.91822 | -41.31079 | 41182 ft | 513 kts | 81° |
| 2026-05-06 18:30 | 54.92648 | -41.18838 | 41181 ft | 513 kts | 81° |
| 2026-05-06 18:31 | 54.93466 | -41.06515 | 41181 ft | 513 kts | 81° |
| 2026-05-06 18:31 | 54.94272 | -40.94196 | 41182 ft | 513 kts | 81° |
| 2026-05-06 18:32 | 54.95065 | -40.81865 | 41181 ft | 513 kts | 81° |
| 2026-05-06 18:32 | 54.95847 | -40.69517 | 41181 ft | 513 kts | 81° |
| 2026-05-06 18:33 | 54.96616 | -40.57181 | 41179 ft | 512 kts | 81° |
| 2026-05-06 18:33 | 54.97371 | -40.44846 | 41183 ft | 512 kts | 81° |
| 2026-05-06 18:34 | 54.98111 | -40.32562 | 41176 ft | 512 kts | 81° |
| 2026-05-06 18:34 | 54.98841 | -40.20226 | 41183 ft | 512 kts | 81° |
| 2026-05-06 18:35 | 54.99559 | -40.07878 | 41177 ft | 512 kts | 81° |
| 2026-05-06 18:35 | 55.00671 | -39.95664 | 41179 ft | 509 kts | 74° |
| 2026-05-06 18:36 | 55.02318 | -39.83665 | 41174 ft | 509 kts | 73° |
| 2026-05-06 18:36 | 55.04035 | -39.71684 | 41172 ft | 509 kts | 73° |
| 2026-05-06 18:37 | 55.05743 | -39.59706 | 41174 ft | 509 kts | 73° |
| 2026-05-06 18:37 | 55.07416 | -39.47792 | 41173 ft | 509 kts | 73° |
| 2026-05-06 18:38 | 55.09084 | -39.35778 | 41175 ft | 509 kts | 73° |
| 2026-05-06 18:38 | 55.10740 | -39.23747 | 41173 ft | 509 kts | 73° |
| 2026-05-06 18:39 | 55.12384 | -39.11710 | 41172 ft | 509 kts | 73° |
| 2026-05-06 18:40 | 55.14821 | -38.93698 | 41174 ft | 509 kts | 74° |
| 2026-05-06 18:40 | 55.16438 | -38.81624 | 41173 ft | 509 kts | 74° |
| 2026-05-06 18:41 | 55.18044 | -38.69529 | 41171 ft | 509 kts | 74° |
| 2026-05-06 18:41 | 55.19633 | -38.57468 | 41171 ft | 509 kts | 74° |
| 2026-05-06 18:42 | 55.21202 | -38.45454 | 41172 ft | 509 kts | 74° |
| 2026-05-06 18:42 | 55.22771 | -38.33340 | 41172 ft | 509 kts | 75° |
| 2026-05-06 18:43 | 55.24328 | -38.21221 | 41175 ft | 509 kts | 75° |
| 2026-05-06 18:43 | 55.25871 | -38.09101 | 41176 ft | 509 kts | 75° |
| 2026-05-06 18:44 | 55.27405 | -37.96957 | 41171 ft | 510 kts | 75° |
| 2026-05-06 18:44 | 55.28925 | -37.84816 | 41169 ft | 510 kts | 75° |
| 2026-05-06 18:45 | 55.30424 | -37.72732 | 41172 ft | 510 kts | 75° |
| 2026-05-06 18:45 | 55.31922 | -37.60556 | 41171 ft | 510 kts | 75° |
| 2026-05-06 18:46 | 55.33409 | -37.48365 | 41175 ft | 510 kts | 75° |
| 2026-05-06 18:46 | 55.34883 | -37.36164 | 41176 ft | 510 kts | 75° |
| 2026-05-06 18:47 | 55.36346 | -37.23946 | 41176 ft | 510 kts | 75° |
| 2026-05-06 18:47 | 55.37797 | -37.11724 | 41177 ft | 511 kts | 76° |
| 2026-05-06 18:48 | 55.39235 | -36.99488 | 41170 ft | 511 kts | 76° |
| 2026-05-06 18:48 | 55.40653 | -36.87319 | 41172 ft | 511 kts | 76° |
| 2026-05-06 18:49 | 55.42070 | -36.75041 | 41170 ft | 511 kts | 76° |
| 2026-05-06 18:49 | 55.43473 | -36.62771 | 41171 ft | 511 kts | 76° |
| 2026-05-06 18:50 | 55.44864 | -36.50488 | 41171 ft | 511 kts | 76° |
| 2026-05-06 18:50 | 55.46234 | -36.38271 | 41170 ft | 511 kts | 76° |
| 2026-05-06 18:51 | 55.47609 | -36.25898 | 41172 ft | 512 kts | 76° |
| 2026-05-06 18:51 | 55.48957 | -36.13643 | 41172 ft | 512 kts | 76° |
| 2026-05-06 18:52 | 55.50300 | -36.01315 | 41174 ft | 512 kts | 76° |
| 2026-05-06 18:52 | 55.51635 | -35.88940 | 41163 ft | 512 kts | 76° |
| 2026-05-06 18:53 | 55.52957 | -35.76561 | 41165 ft | 512 kts | 77° |
| 2026-05-06 18:53 | 55.54258 | -35.64257 | 41173 ft | 513 kts | 77° |
| 2026-05-06 18:54 | 55.55554 | -35.51860 | 41182 ft | 513 kts | 77° |
| 2026-05-06 18:54 | 55.56838 | -35.39451 | 41178 ft | 513 kts | 77° |
| 2026-05-06 18:55 | 55.58111 | -35.27028 | 41171 ft | 513 kts | 77° |
| 2026-05-06 18:55 | 55.59374 | -35.14577 | 41176 ft | 514 kts | 77° |
| 2026-05-06 18:56 | 55.60623 | -35.02133 | 41169 ft | 514 kts | 77° |
| 2026-05-06 18:56 | 55.61859 | -34.89682 | 41170 ft | 514 kts | 77° |
| 2026-05-06 18:57 | 55.63075 | -34.77291 | 41166 ft | 514 kts | 77° |
| 2026-05-06 18:57 | 55.64288 | -34.64810 | 41170 ft | 514 kts | 77° |
| 2026-05-06 18:58 | 55.65487 | -34.52318 | 41166 ft | 515 kts | 77° |
| 2026-05-06 18:58 | 55.66674 | -34.39818 | 41168 ft | 515 kts | 78° |
| 2026-05-06 18:59 | 55.67851 | -34.27276 | 41168 ft | 515 kts | 78° |
| 2026-05-06 18:59 | 55.69014 | -34.14743 | 41166 ft | 515 kts | 78° |
| 2026-05-06 19:00 | 55.70165 | -34.02204 | 41162 ft | 515 kts | 78° |
| 2026-05-06 19:00 | 55.71298 | -33.89705 | 41163 ft | 515 kts | 78° |
| 2026-05-06 19:01 | 55.72423 | -33.77160 | 41162 ft | 515 kts | 78° |
| 2026-05-06 19:01 | 55.73535 | -33.64580 | 41161 ft | 516 kts | 78° |
| 2026-05-06 19:02 | 55.74635 | -33.52005 | 41160 ft | 516 kts | 78° |
| 2026-05-06 19:02 | 55.75721 | -33.39414 | 41164 ft | 516 kts | 79° |
| 2026-05-06 19:03 | 55.76795 | -33.26820 | 41159 ft | 516 kts | 79° |
| 2026-05-06 19:03 | 55.77852 | -33.14289 | 41160 ft | 516 kts | 79° |
| 2026-05-06 19:04 | 55.78900 | -33.01664 | 41158 ft | 516 kts | 79° |
| 2026-05-06 19:04 | 55.79937 | -32.89031 | 41160 ft | 516 kts | 79° |
| 2026-05-06 19:05 | 55.80962 | -32.76388 | 41158 ft | 516 kts | 79° |
| 2026-05-06 19:05 | 55.81973 | -32.63761 | 41156 ft | 516 kts | 79° |
| 2026-05-06 19:06 | 55.82974 | -32.51082 | 41160 ft | 516 kts | 79° |
| 2026-05-06 19:06 | 55.83952 | -32.38522 | 41155 ft | 517 kts | 79° |
| 2026-05-06 19:07 | 55.84925 | -32.25848 | 41154 ft | 517 kts | 80° |
| 2026-05-06 19:07 | 55.85890 | -32.13075 | 41153 ft | 517 kts | 80° |
| 2026-05-06 19:08 | 55.86831 | -32.00452 | 41158 ft | 517 kts | 80° |
| 2026-05-06 19:08 | 55.87769 | -31.87745 | 41150 ft | 517 kts | 80° |
| 2026-05-06 19:09 | 55.88534 | -31.77177 | 41147 ft | 518 kts | 80° |
| 2026-05-06 19:09 | 55.89445 | -31.64451 | 41148 ft | 518 kts | 81° |
| 2026-05-06 19:10 | 55.90344 | -31.51722 | 41146 ft | 518 kts | 81° |
| 2026-05-06 19:10 | 55.91230 | -31.38981 | 41148 ft | 518 kts | 81° |
| 2026-05-06 19:11 | 55.92103 | -31.26225 | 41146 ft | 518 kts | 81° |
| 2026-05-06 19:11 | 55.92963 | -31.13460 | 41144 ft | 518 kts | 81° |
| 2026-05-06 19:12 | 55.93810 | -31.00691 | 41145 ft | 518 kts | 81° |
| 2026-05-06 19:12 | 55.94640 | -30.87972 | 41145 ft | 519 kts | 81° |
| 2026-05-06 19:13 | 55.95461 | -30.75180 | 41142 ft | 519 kts | 81° |
| 2026-05-06 19:13 | 55.96268 | -30.62374 | 41141 ft | 519 kts | 81° |
| 2026-05-06 19:14 | 55.97063 | -30.49572 | 41137 ft | 519 kts | 82° |
| 2026-05-06 19:14 | 55.97845 | -30.36752 | 41138 ft | 519 kts | 82° |
| 2026-05-06 19:15 | 55.98609 | -30.24004 | 41140 ft | 519 kts | 82° |
| 2026-05-06 19:15 | 55.99365 | -30.11164 | 41137 ft | 520 kts | 82° |
| 2026-05-06 19:16 | 56.00108 | -29.98315 | 41136 ft | 520 kts | 82° |
| 2026-05-06 19:16 | 56.00684 | -29.85415 | 41133 ft | 520 kts | 84° |
| 2026-05-06 19:17 | 56.01133 | -29.72490 | 41134 ft | 521 kts | 84° |
| 2026-05-06 19:17 | 56.01588 | -29.59567 | 41132 ft | 521 kts | 84° |
| 2026-05-06 19:18 | 56.02055 | -29.46644 | 41128 ft | 521 kts | 84° |
| 2026-05-06 19:18 | 56.02515 | -29.33799 | 41126 ft | 521 kts | 84° |
| 2026-05-06 19:19 | 56.02964 | -29.20861 | 41127 ft | 521 kts | 85° |
| 2026-05-06 19:19 | 56.03400 | -29.07908 | 41122 ft | 521 kts | 85° |
| 2026-05-06 19:20 | 56.03821 | -28.94957 | 41123 ft | 521 kts | 85° |
| 2026-05-06 19:20 | 56.04229 | -28.81986 | 41119 ft | 522 kts | 85° |
| 2026-05-06 19:21 | 56.04621 | -28.69097 | 41117 ft | 522 kts | 85° |
| 2026-05-06 19:21 | 56.05002 | -28.56124 | 41113 ft | 522 kts | 85° |
| 2026-05-06 19:22 | 56.05369 | -28.43148 | 41115 ft | 522 kts | 85° |
| 2026-05-06 19:22 | 56.05723 | -28.30156 | 41111 ft | 522 kts | 85° |
| 2026-05-06 19:23 | 56.06064 | -28.17167 | 41111 ft | 522 kts | 85° |
| 2026-05-06 19:23 | 56.06390 | -28.04175 | 41107 ft | 523 kts | 86° |
| 2026-05-06 19:24 | 56.06704 | -27.91159 | 41106 ft | 523 kts | 86° |
| 2026-05-06 19:24 | 56.07001 | -27.78244 | 41102 ft | 523 kts | 86° |
| 2026-05-06 19:25 | 56.07287 | -27.65228 | 41104 ft | 523 kts | 86° |
| 2026-05-06 19:25 | 56.07560 | -27.52203 | 41100 ft | 523 kts | 86° |
| 2026-05-06 19:26 | 56.07819 | -27.39179 | 41097 ft | 523 kts | 86° |
| 2026-05-06 19:26 | 56.08064 | -27.26145 | 41095 ft | 524 kts | 86° |
| 2026-05-06 19:27 | 56.08296 | -27.13092 | 41092 ft | 524 kts | 86° |
| 2026-05-06 19:27 | 56.08512 | -27.00129 | 41090 ft | 524 kts | 87° |
| 2026-05-06 19:28 | 56.08716 | -26.87076 | 41089 ft | 524 kts | 87° |
| 2026-05-06 19:28 | 56.08907 | -26.74024 | 41085 ft | 525 kts | 87° |
| 2026-05-06 19:29 | 56.09084 | -26.60970 | 41079 ft | 525 kts | 87° |
| 2026-05-06 19:29 | 56.09247 | -26.47896 | 41076 ft | 525 kts | 87° |
| 2026-05-06 19:30 | 56.09396 | -26.34810 | 41071 ft | 525 kts | 88° |
| 2026-05-06 19:30 | 56.09532 | -26.21715 | 41074 ft | 525 kts | 88° |
| 2026-05-06 19:31 | 56.09654 | -26.08608 | 41077 ft | 526 kts | 88° |
| 2026-05-06 19:31 | 56.09811 | -25.88958 | 41072 ft | 526 kts | 88° |
| 2026-05-06 19:32 | 56.09898 | -25.75940 | 41068 ft | 526 kts | 88° |
| 2026-05-06 19:32 | 56.09971 | -25.62815 | 41056 ft | 527 kts | 88° |
| 2026-05-06 19:33 | 56.10031 | -25.49693 | 41054 ft | 527 kts | 88° |
| 2026-05-06 19:33 | 56.10077 | -25.36563 | 41057 ft | 527 kts | 88° |
| 2026-05-06 19:34 | 56.10108 | -25.23418 | 41052 ft | 527 kts | 88° |
| 2026-05-06 19:34 | 56.10126 | -25.10280 | 41047 ft | 528 kts | 89° |
| 2026-05-06 19:35 | 56.10130 | -24.97126 | 41043 ft | 528 kts | 89° |
| 2026-05-06 19:35 | 56.10121 | -24.83968 | 41042 ft | 528 kts | 89° |
| 2026-05-06 19:36 | 56.10096 | -24.70890 | 41039 ft | 528 kts | 89° |
| 2026-05-06 19:36 | 56.10058 | -24.57710 | 41035 ft | 529 kts | 89° |
| 2026-05-06 19:37 | 56.10006 | -24.44535 | 41031 ft | 529 kts | 89° |
| 2026-05-06 19:37 | 56.09952 | -24.33578 | 41029 ft | 529 kts | 89° |
| 2026-05-06 19:38 | 56.09860 | -24.18162 | 41025 ft | 529 kts | 89° |
| 2026-05-06 19:38 | 56.09765 | -24.04971 | 41018 ft | 530 kts | 90° |
| 2026-05-06 19:39 | 56.09658 | -23.91845 | 41016 ft | 530 kts | 90° |
| 2026-05-06 19:39 | 56.09536 | -23.78642 | 41011 ft | 530 kts | 90° |
| 2026-05-06 19:40 | 56.09399 | -23.65427 | 41009 ft | 530 kts | 90° |
| 2026-05-06 19:40 | 56.09248 | -23.52202 | 41002 ft | 531 kts | 90° |
| 2026-05-06 19:41 | 56.09083 | -23.38965 | 40999 ft | 531 kts | 90° |
| 2026-05-06 19:41 | 56.08903 | -23.25734 | 40992 ft | 531 kts | 90° |
| 2026-05-06 19:42 | 56.08710 | -23.12512 | 40989 ft | 531 kts | 91° |
| 2026-05-06 19:42 | 56.08504 | -22.99368 | 40984 ft | 531 kts | 91° |
| 2026-05-06 19:43 | 56.08282 | -22.86135 | 40981 ft | 531 kts | 91° |
| 2026-05-06 19:43 | 56.08046 | -22.72900 | 40975 ft | 532 kts | 91° |
| 2026-05-06 19:44 | 56.07796 | -22.59667 | 40969 ft | 532 kts | 91° |
| 2026-05-06 19:44 | 56.07533 | -22.46436 | 40963 ft | 532 kts | 91° |
| 2026-05-06 19:45 | 56.07254 | -22.33201 | 40963 ft | 532 kts | 91° |
| 2026-05-06 19:45 | 56.06961 | -22.19973 | 40955 ft | 532 kts | 91° |
| 2026-05-06 19:46 | 56.06653 | -22.06719 | 40947 ft | 532 kts | 92° |
| 2026-05-06 19:46 | 56.06331 | -21.93473 | 40946 ft | 533 kts | 92° |
| 2026-05-06 19:47 | 56.05997 | -21.80280 | 40938 ft | 533 kts | 92° |
| 2026-05-06 19:47 | 56.05647 | -21.67043 | 40934 ft | 533 kts | 92° |
| 2026-05-06 19:48 | 56.05283 | -21.53786 | 40928 ft | 533 kts | 92° |
| 2026-05-06 19:48 | 56.04905 | -21.40527 | 40924 ft | 533 kts | 92° |
| 2026-05-06 19:49 | 56.04512 | -21.27264 | 40917 ft | 534 kts | 92° |
| 2026-05-06 19:49 | 56.04105 | -21.14011 | 40911 ft | 534 kts | 92° |
| 2026-05-06 19:50 | 56.03684 | -21.00751 | 40907 ft | 534 kts | 93° |
| 2026-05-06 19:50 | 56.03251 | -20.87595 | 40900 ft | 534 kts | 93° |
| 2026-05-06 19:51 | 56.02801 | -20.74329 | 40895 ft | 534 kts | 93° |
| 2026-05-06 19:51 | 56.02335 | -20.61066 | 40891 ft | 534 kts | 93° |
| 2026-05-06 19:52 | 56.01857 | -20.47820 | 40883 ft | 534 kts | 93° |
| 2026-05-06 19:52 | 56.01365 | -20.34580 | 40879 ft | 534 kts | 94° |
| 2026-05-06 19:53 | 56.00857 | -20.21333 | 40875 ft | 534 kts | 94° |
| 2026-05-06 19:53 | 56.00341 | -20.08181 | 40872 ft | 534 kts | 94° |
| 2026-05-06 19:54 | 55.99109 | -19.95129 | 40871 ft | 533 kts | 106° |
| 2026-05-06 19:54 | 55.96987 | -19.82445 | 40864 ft | 533 kts | 108° |
| 2026-05-06 19:55 | 55.94722 | -19.69832 | 40860 ft | 533 kts | 108° |
| 2026-05-06 19:55 | 55.92462 | -19.57339 | 40862 ft | 533 kts | 108° |
| 2026-05-06 19:56 | 55.90193 | -19.44770 | 40861 ft | 533 kts | 108° |
| 2026-05-06 19:56 | 55.87921 | -19.32217 | 40861 ft | 532 kts | 108° |
| 2026-05-06 19:57 | 55.86023 | -19.21786 | 40859 ft | 532 kts | 109° |
| 2026-05-06 19:57 | 55.83724 | -19.09231 | 40860 ft | 532 kts | 109° |
| 2026-05-06 19:58 | 55.81416 | -18.96715 | 40859 ft | 532 kts | 109° |
| 2026-05-06 19:58 | 55.79108 | -18.84293 | 40855 ft | 531 kts | 109° |
| 2026-05-06 19:59 | 55.76775 | -18.71814 | 40859 ft | 531 kts | 109° |
| 2026-05-06 19:59 | 55.74434 | -18.59372 | 40859 ft | 531 kts | 109° |
| 2026-05-06 20:00 | 55.72092 | -18.47008 | 40857 ft | 531 kts | 109° |
| 2026-05-06 20:00 | 55.69727 | -18.34598 | 40862 ft | 531 kts | 109° |
| 2026-05-06 20:01 | 55.67350 | -18.22211 | 40863 ft | 530 kts | 109° |
| 2026-05-06 20:01 | 55.64963 | -18.09852 | 40862 ft | 530 kts | 109° |
| 2026-05-06 20:02 | 55.62562 | -17.97500 | 40860 ft | 529 kts | 110° |
| 2026-05-06 20:02 | 55.60169 | -17.85261 | 40863 ft | 529 kts | 110° |
| 2026-05-06 20:03 | 55.57750 | -17.72976 | 40863 ft | 529 kts | 110° |
| 2026-05-06 20:03 | 55.55333 | -17.60769 | 40861 ft | 528 kts | 110° |
| 2026-05-06 20:04 | 55.52894 | -17.48534 | 40863 ft | 528 kts | 110° |
| 2026-05-06 20:04 | 55.50441 | -17.36302 | 40860 ft | 528 kts | 110° |
| 2026-05-06 20:05 | 55.47977 | -17.24091 | 40864 ft | 528 kts | 110° |
| 2026-05-06 20:05 | 55.45497 | -17.11879 | 40864 ft | 528 kts | 110° |
| 2026-05-06 20:06 | 55.43011 | -16.99710 | 40864 ft | 528 kts | 110° |
| 2026-05-06 20:06 | 55.40527 | -16.87624 | 40863 ft | 528 kts | 110° |
| 2026-05-06 20:07 | 55.38019 | -16.75496 | 40867 ft | 528 kts | 111° |
| 2026-05-06 20:07 | 55.35496 | -16.63371 | 40865 ft | 527 kts | 111° |
| 2026-05-06 20:08 | 55.32959 | -16.51249 | 40863 ft | 527 kts | 111° |
| 2026-05-06 20:08 | 55.30416 | -16.39173 | 40864 ft | 527 kts | 111° |
| 2026-05-06 20:09 | 55.27857 | -16.27090 | 40868 ft | 527 kts | 111° |
| 2026-05-06 20:09 | 55.25304 | -16.15111 | 40867 ft | 527 kts | 111° |
| 2026-05-06 20:10 | 55.22726 | -16.03082 | 40867 ft | 527 kts | 111° |
| 2026-05-06 20:10 | 55.20136 | -15.91068 | 40872 ft | 527 kts | 111° |
| 2026-05-06 20:11 | 55.17536 | -15.79079 | 40878 ft | 527 kts | 111° |
| 2026-05-06 20:11 | 55.14920 | -15.67086 | 40876 ft | 527 kts | 111° |
| 2026-05-06 20:12 | 55.12297 | -15.55128 | 40880 ft | 526 kts | 111° |
| 2026-05-06 20:12 | 55.09662 | -15.43189 | 40880 ft | 526 kts | 112° |
| 2026-05-06 20:13 | 55.07017 | -15.31268 | 40879 ft | 526 kts | 112° |
| 2026-05-06 20:13 | 55.04380 | -15.19453 | 40877 ft | 526 kts | 112° |
| 2026-05-06 20:14 | 55.01718 | -15.07569 | 40881 ft | 526 kts | 111° |
| 2026-05-06 20:14 | 55.00128 | -14.95190 | 40884 ft | 525 kts | 92° |
| 2026-05-06 20:15 | 54.99969 | -14.82472 | 40882 ft | 525 kts | 89° |
| 2026-05-06 20:15 | 55.00036 | -14.69738 | 40883 ft | 525 kts | 89° |
| 2026-05-06 20:16 | 55.00098 | -14.57017 | 40893 ft | 525 kts | 89° |
| 2026-05-06 20:16 | 55.00115 | -14.44348 | 40898 ft | 525 kts | 90° |
| 2026-05-06 20:17 | 55.00102 | -14.31626 | 40885 ft | 525 kts | 90° |
| 2026-05-06 20:17 | 55.00074 | -14.18886 | 40891 ft | 525 kts | 90° |
| 2026-05-06 20:18 | 55.00001 | -14.06167 | 40888 ft | 525 kts | 93° |
| 2026-05-06 20:18 | 54.98608 | -13.93737 | 40901 ft | 523 kts | 109° |
| 2026-05-06 20:19 | 54.96164 | -13.81901 | 40892 ft | 523 kts | 111° |
| 2026-05-06 20:19 | 54.93531 | -13.70083 | 40906 ft | 523 kts | 112° |
| 2026-05-06 20:20 | 54.90894 | -13.58300 | 40904 ft | 523 kts | 112° |
| 2026-05-06 20:20 | 54.88269 | -13.46504 | 40908 ft | 523 kts | 111° |
| 2026-05-06 20:21 | 54.85643 | -13.34717 | 40894 ft | 523 kts | 111° |
| 2026-05-06 20:21 | 54.83009 | -13.22948 | 40913 ft | 523 kts | 112° |
| 2026-05-06 20:22 | 54.80365 | -13.11212 | 40909 ft | 522 kts | 112° |
| 2026-05-06 20:22 | 54.77730 | -12.99579 | 40916 ft | 522 kts | 112° |
| 2026-05-06 20:23 | 54.75065 | -12.87881 | 40920 ft | 522 kts | 112° |
| 2026-05-06 20:23 | 54.72388 | -12.76197 | 40923 ft | 522 kts | 112° |
| 2026-05-06 20:24 | 54.69702 | -12.64536 | 40919 ft | 521 kts | 112° |
| 2026-05-06 20:24 | 54.67010 | -12.52912 | 40920 ft | 521 kts | 112° |
| 2026-05-06 20:25 | 54.64305 | -12.41299 | 40928 ft | 521 kts | 112° |
| 2026-05-06 20:25 | 54.61606 | -12.29770 | 40922 ft | 520 kts | 112° |
| 2026-05-06 20:26 | 54.58885 | -12.18212 | 40926 ft | 520 kts | 112° |
| 2026-05-06 20:26 | 54.56150 | -12.06657 | 40931 ft | 520 kts | 112° |
| 2026-05-06 20:27 | 54.53406 | -11.95122 | 40933 ft | 520 kts | 113° |
| 2026-05-06 20:27 | 54.50655 | -11.83620 | 40935 ft | 520 kts | 113° |
| 2026-05-06 20:28 | 54.47888 | -11.72117 | 40943 ft | 519 kts | 113° |
| 2026-05-06 20:28 | 54.45135 | -11.60729 | 40941 ft | 519 kts | 113° |
| 2026-05-06 20:29 | 54.42350 | -11.49270 | 40942 ft | 519 kts | 113° |
| 2026-05-06 20:29 | 54.39557 | -11.37838 | 40944 ft | 519 kts | 113° |
| 2026-05-06 20:30 | 54.35346 | -11.20713 | 40946 ft | 519 kts | 113° |
| 2026-05-06 20:31 | 54.32525 | -11.09315 | 40952 ft | 519 kts | 113° |
| 2026-05-06 20:31 | 54.29700 | -10.97958 | 40957 ft | 519 kts | 113° |
| 2026-05-06 20:32 | 54.26875 | -10.86662 | 40956 ft | 519 kts | 114° |
| 2026-05-06 20:32 | 54.24022 | -10.75310 | 40953 ft | 519 kts | 114° |
| 2026-05-06 20:33 | 54.21164 | -10.63998 | 40956 ft | 519 kts | 114° |
| 2026-05-06 20:33 | 54.18289 | -10.52679 | 40958 ft | 519 kts | 114° |
| 2026-05-06 20:34 | 54.15407 | -10.41386 | 40955 ft | 519 kts | 114° |
| 2026-05-06 20:34 | 54.12516 | -10.30113 | 40963 ft | 519 kts | 114° |
| 2026-05-06 20:35 | 54.09633 | -10.18930 | 40963 ft | 518 kts | 114° |
| 2026-05-06 20:35 | 54.06719 | -10.07681 | 40965 ft | 518 kts | 114° |
| 2026-05-06 20:36 | 54.03794 | -9.96450 | 40967 ft | 518 kts | 114° |
| 2026-05-06 20:36 | 54.00858 | -9.85230 | 40972 ft | 518 kts | 114° |
| 2026-05-06 20:37 | 53.97934 | -9.74112 | 40970 ft | 518 kts | 114° |
| 2026-05-06 20:37 | 53.94987 | -9.62960 | 40972 ft | 518 kts | 114° |
| 2026-05-06 20:38 | 53.92022 | -9.51794 | 40973 ft | 518 kts | 114° |
| 2026-05-06 20:38 | 53.89048 | -9.40652 | 40970 ft | 518 kts | 114° |
| 2026-05-06 20:39 | 53.86082 | -9.29593 | 40973 ft | 518 kts | 114° |
| 2026-05-06 20:39 | 53.83089 | -9.18486 | 40973 ft | 518 kts | 114° |
| 2026-05-06 20:40 | 53.80085 | -9.07393 | 40974 ft | 518 kts | 114° |
| 2026-05-06 20:40 | 53.77076 | -8.96334 | 40974 ft | 517 kts | 114° |
| 2026-05-06 20:41 | 53.74060 | -8.85303 | 40973 ft | 517 kts | 115° |
| 2026-05-06 20:41 | 53.71029 | -8.74273 | 40974 ft | 517 kts | 115° |
| 2026-05-06 20:42 | 53.67993 | -8.63273 | 40972 ft | 517 kts | 115° |
| 2026-05-06 20:42 | 53.64947 | -8.52292 | 40971 ft | 517 kts | 115° |
| 2026-05-06 20:43 | 53.61888 | -8.41315 | 40969 ft | 517 kts | 115° |
| 2026-05-06 20:43 | 53.58841 | -8.30433 | 40967 ft | 516 kts | 115° |
| 2026-05-06 20:44 | 53.55770 | -8.19513 | 40965 ft | 516 kts | 115° |
| 2026-05-06 20:44 | 53.52689 | -8.08613 | 40964 ft | 516 kts | 115° |
| 2026-05-06 20:45 | 53.50120 | -7.99561 | 40964 ft | 516 kts | 115° |
| 2026-05-06 20:45 | 53.46514 | -7.86914 | 40962 ft | 515 kts | 115° |
| 2026-05-06 20:46 | 53.43931 | -7.77900 | 40962 ft | 515 kts | 115° |
| 2026-05-06 20:46 | 53.40815 | -7.67066 | 40966 ft | 515 kts | 115° |
| 2026-05-06 20:47 | 53.37695 | -7.56271 | 40965 ft | 515 kts | 115° |
| 2026-05-06 20:47 | 53.34568 | -7.45502 | 40960 ft | 515 kts | 115° |
| 2026-05-06 20:48 | 53.31416 | -7.34695 | 40961 ft | 515 kts | 115° |
| 2026-05-06 20:48 | 53.28292 | -7.24032 | 40961 ft | 514 kts | 116° |
| 2026-05-06 20:49 | 53.25132 | -7.13298 | 40960 ft | 514 kts | 116° |
| 2026-05-06 20:49 | 53.21962 | -7.02574 | 40959 ft | 514 kts | 116° |
| 2026-05-06 20:50 | 53.18785 | -6.91877 | 40964 ft | 514 kts | 116° |
| 2026-05-06 20:50 | 53.15599 | -6.81198 | 40964 ft | 514 kts | 116° |
| 2026-05-06 20:51 | 53.12425 | -6.70608 | 40967 ft | 514 kts | 116° |
| 2026-05-06 20:51 | 53.09223 | -6.59968 | 40969 ft | 514 kts | 116° |
| 2026-05-06 20:52 | 53.06013 | -6.49351 | 40968 ft | 513 kts | 116° |
| 2026-05-06 20:52 | 53.02793 | -6.38748 | 40972 ft | 513 kts | 116° |
| 2026-05-06 20:53 | 52.99564 | -6.28162 | 40972 ft | 513 kts | 117° |
| 2026-05-06 20:53 | 52.96344 | -6.17650 | 40976 ft | 513 kts | 117° |
| 2026-05-06 20:54 | 52.93098 | -6.07101 | 40981 ft | 513 kts | 117° |
| 2026-05-06 20:54 | 52.89845 | -5.96576 | 40983 ft | 513 kts | 117° |
| 2026-05-06 20:55 | 52.86584 | -5.86071 | 40983 ft | 513 kts | 117° |
| 2026-05-06 20:55 | 52.83311 | -5.75573 | 40988 ft | 513 kts | 117° |
| 2026-05-06 20:56 | 52.80031 | -5.65096 | 40989 ft | 513 kts | 117° |
| 2026-05-06 20:56 | 52.76737 | -5.54620 | 40992 ft | 513 kts | 117° |
| 2026-05-06 20:57 | 52.73465 | -5.44227 | 40998 ft | 513 kts | 117° |
| 2026-05-06 20:57 | 52.70204 | -5.33756 | 41001 ft | 513 kts | 117° |
| 2026-05-06 20:58 | 52.66943 | -5.23305 | 41002 ft | 513 kts | 117° |
| 2026-05-06 20:58 | 52.63668 | -5.12876 | 41004 ft | 513 kts | 117° |
| 2026-05-06 20:59 | 52.60377 | -5.02454 | 41004 ft | 513 kts | 117° |
| 2026-05-06 20:59 | 52.57071 | -4.92033 | 41001 ft | 513 kts | 117° |
| 2026-05-06 21:00 | 52.53761 | -4.81643 | 41003 ft | 513 kts | 117° |
| 2026-05-06 21:00 | 52.50461 | -4.71330 | 41003 ft | 513 kts | 118° |
| 2026-05-06 21:01 | 52.47126 | -4.60948 | 41003 ft | 513 kts | 118° |
| 2026-05-06 21:01 | 52.43792 | -4.50616 | 41003 ft | 513 kts | 118° |
| 2026-05-06 21:02 | 52.40442 | -4.40274 | 41002 ft | 513 kts | 118° |
| 2026-05-06 21:02 | 52.37083 | -4.29953 | 41002 ft | 513 kts | 118° |
| 2026-05-06 21:03 | 52.33722 | -4.19664 | 41002 ft | 513 kts | 118° |
| 2026-05-06 21:03 | 52.30347 | -4.09377 | 41002 ft | 513 kts | 118° |
| 2026-05-06 21:04 | 52.26961 | -3.99099 | 41006 ft | 513 kts | 118° |
| 2026-05-06 21:04 | 52.23588 | -3.88904 | 41005 ft | 513 kts | 118° |
| 2026-05-06 21:05 | 52.20185 | -3.78660 | 41005 ft | 513 kts | 118° |
| 2026-05-06 21:05 | 52.16779 | -3.68449 | 41007 ft | 513 kts | 118° |
| 2026-05-06 21:06 | 52.13362 | -3.58248 | 41011 ft | 513 kts | 119° |
| 2026-05-06 21:06 | 52.09937 | -3.48065 | 41009 ft | 513 kts | 119° |
| 2026-05-06 21:07 | 52.06503 | -3.37897 | 41010 ft | 513 kts | 119° |
| 2026-05-06 21:07 | 52.03090 | -3.27829 | 41010 ft | 513 kts | 119° |
| 2026-05-06 21:08 | 51.99633 | -3.17675 | 41024 ft | 513 kts | 119° |
| 2026-05-06 21:08 | 51.96177 | -3.07566 | 41039 ft | 513 kts | 119° |
| 2026-05-06 21:09 | 51.92702 | -2.97441 | 41048 ft | 513 kts | 119° |
| 2026-05-06 21:09 | 51.89223 | -2.87346 | 41057 ft | 513 kts | 120° |
| 2026-05-06 21:10 | 51.85739 | -2.77278 | 41059 ft | 513 kts | 120° |
| 2026-05-06 21:10 | 51.82265 | -2.67279 | 41053 ft | 513 kts | 120° |
| 2026-05-06 21:11 | 51.78759 | -2.57225 | 41039 ft | 513 kts | 120° |
| 2026-05-06 21:11 | 51.75248 | -2.47200 | 41026 ft | 513 kts | 120° |
| 2026-05-06 21:12 | 51.71723 | -2.37173 | 41015 ft | 513 kts | 120° |
| 2026-05-06 21:12 | 51.68191 | -2.27167 | 41014 ft | 513 kts | 120° |
| 2026-05-06 21:13 | 51.64653 | -2.17183 | 41015 ft | 513 kts | 120° |
| 2026-05-06 21:13 | 51.61132 | -2.07287 | 41017 ft | 513 kts | 120° |
| 2026-05-06 21:14 | 51.57577 | -1.97332 | 41017 ft | 513 kts | 120° |
| 2026-05-06 21:14 | 51.54012 | -1.87392 | 41017 ft | 513 kts | 120° |
| 2026-05-06 21:15 | 51.50444 | -1.77478 | 41017 ft | 513 kts | 121° |
| 2026-05-06 21:15 | 51.46728 | -1.67676 | 41025 ft | 512 kts | 127° |
| 2026-05-06 21:16 | 51.42305 | -1.58796 | 41015 ft | 512 kts | 130° |
| 2026-05-06 21:16 | 51.37691 | -1.50038 | 41016 ft | 512 kts | 131° |
| 2026-05-06 21:17 | 51.33099 | -1.41407 | 41017 ft | 512 kts | 131° |
| 2026-05-06 21:17 | 51.29106 | -1.33895 | 41014 ft | 512 kts | 131° |
| 2026-05-06 21:18 | 51.24501 | -1.25232 | 41013 ft | 512 kts | 131° |
| 2026-05-06 21:18 | 51.19887 | -1.16574 | 41016 ft | 512 kts | 131° |
| 2026-05-06 21:19 | 51.15271 | -1.07941 | 41017 ft | 512 kts | 131° |
| 2026-05-06 21:19 | 51.10652 | -0.99333 | 41015 ft | 511 kts | 131° |
| 2026-05-06 21:20 | 51.06018 | -0.90729 | 41014 ft | 511 kts | 131° |
| 2026-05-06 21:20 | 51.01382 | -0.82148 | 41010 ft | 511 kts | 131° |
| 2026-05-06 21:21 | 50.96746 | -0.73596 | 41002 ft | 511 kts | 131° |
| 2026-05-06 21:21 | 50.92108 | -0.65068 | 41003 ft | 511 kts | 131° |
| 2026-05-06 21:22 | 50.88244 | -0.57986 | 41005 ft | 511 kts | 132° |
| 2026-05-06 21:22 | 50.83588 | -0.49477 | 41001 ft | 511 kts | 132° |
| 2026-05-06 21:23 | 50.78936 | -0.41005 | 41005 ft | 511 kts | 132° |
| 2026-05-06 21:23 | 50.74263 | -0.32522 | 41007 ft | 511 kts | 132° |
| 2026-05-06 21:24 | 50.69341 | -0.24566 | 41002 ft | 508 kts | 143° |
| 2026-05-06 21:24 | 50.63590 | -0.18092 | 41003 ft | 508 kts | 147° |
| 2026-05-06 21:25 | 50.57694 | -0.11955 | 41006 ft | 508 kts | 148° |
| 2026-05-06 21:25 | 50.51785 | -0.05871 | 41006 ft | 508 kts | 148° |
| 2026-05-06 21:26 | 50.45886 | 0.00229 | 41007 ft | 508 kts | 148° |
| 2026-05-06 21:26 | 50.40053 | 0.06273 | 41007 ft | 508 kts | 148° |
| 2026-05-06 21:27 | 50.34122 | 0.12411 | 41006 ft | 508 kts | 148° |
| 2026-05-06 21:27 | 50.28227 | 0.18486 | 41003 ft | 508 kts | 148° |
| 2026-05-06 21:28 | 50.22317 | 0.24552 | 41007 ft | 508 kts | 148° |
| 2026-05-06 21:28 | 50.16413 | 0.30614 | 41005 ft | 508 kts | 148° |
| 2026-05-06 21:29 | 50.10504 | 0.36684 | 41003 ft | 508 kts | 148° |
| 2026-05-06 21:29 | 50.04599 | 0.42732 | 41005 ft | 508 kts | 148° |
| 2026-05-06 21:30 | 49.98678 | 0.48777 | 41005 ft | 508 kts | 148° |
| 2026-05-06 21:30 | 49.92766 | 0.54793 | 41004 ft | 508 kts | 148° |
| 2026-05-06 21:31 | 49.87855 | 0.59823 | 40997 ft | 509 kts | 146° |
| 2026-05-06 21:31 | 49.82594 | 0.67180 | 40997 ft | 511 kts | 135° |
| 2026-05-06 21:32 | 49.77765 | 0.75253 | 40994 ft | 511 kts | 133° |
| 2026-05-06 21:32 | 49.70630 | 0.87437 | 40992 ft | 511 kts | 133° |
| 2026-05-06 21:33 | 49.65833 | 0.95544 | 40996 ft | 511 kts | 134° |
| 2026-05-06 21:33 | 49.61022 | 1.03618 | 41015 ft | 511 kts | 134° |
| 2026-05-06 21:34 | 49.56203 | 1.11675 | 41002 ft | 511 kts | 134° |
| 2026-05-06 21:34 | 49.51375 | 1.19721 | 41020 ft | 510 kts | 134° |
| 2026-05-06 21:35 | 49.46548 | 1.27742 | 41020 ft | 510 kts | 134° |
| 2026-05-06 21:35 | 49.41722 | 1.35738 | 41015 ft | 510 kts | 134° |
| 2026-05-06 21:36 | 49.36893 | 1.43714 | 41014 ft | 510 kts | 134° |
| 2026-05-06 21:36 | 49.32086 | 1.51630 | 41006 ft | 510 kts | 134° |
| 2026-05-06 21:37 | 49.27242 | 1.59582 | 40999 ft | 510 kts | 134° |
| 2026-05-06 21:37 | 49.22392 | 1.67518 | 40987 ft | 510 kts | 134° |
| 2026-05-06 21:38 | 49.17543 | 1.75429 | 40991 ft | 511 kts | 134° |
| 2026-05-06 21:38 | 49.12678 | 1.83342 | 40990 ft | 511 kts | 134° |
| 2026-05-06 21:39 | 49.07920 | 1.91058 | 40993 ft | 511 kts | 134° |
| 2026-05-06 21:39 | 49.06311 | 1.93660 | 40992 ft | 511 kts | 134° |
| 2026-05-06 21:40 | 49.03979 | 1.97429 | 40996 ft | 511 kts | 134° |
| 2026-05-06 21:40 | 48.99125 | 2.05255 | 40994 ft | 510 kts | 134° |
| 2026-05-06 21:41 | 48.94244 | 2.13103 | 40993 ft | 510 kts | 134° |
| 2026-05-06 21:41 | 48.89368 | 2.20919 | 40990 ft | 510 kts | 135° |
| 2026-05-06 21:42 | 48.84479 | 2.28732 | 40993 ft | 510 kts | 135° |
| 2026-05-06 21:42 | 48.79626 | 2.36464 | 40993 ft | 510 kts | 135° |
| 2026-05-06 21:43 | 48.74720 | 2.44257 | 40993 ft | 510 kts | 135° |
| 2026-05-06 21:43 | 48.69813 | 2.52027 | 40993 ft | 510 kts | 135° |
| 2026-05-06 21:44 | 48.64908 | 2.59771 | 40992 ft | 510 kts | 135° |
| 2026-05-06 21:44 | 48.60035 | 2.67565 | 40989 ft | 511 kts | 131° |
| 2026-05-06 21:45 | 48.56307 | 2.76679 | 40993 ft | 513 kts | 112° |
| 2026-05-06 21:45 | 48.54767 | 2.87179 | 40993 ft | 515 kts | 95° |
| 2026-05-06 21:46 | 48.54356 | 2.97907 | 40985 ft | 516 kts | 93° |
| 2026-05-06 21:46 | 48.54068 | 3.08748 | 40981 ft | 516 kts | 93° |
| 2026-05-06 21:47 | 48.53727 | 3.19594 | 40973 ft | 516 kts | 94° |
| 2026-05-06 21:47 | 48.53342 | 3.30420 | 40967 ft | 517 kts | 94° |
| 2026-05-06 21:48 | 48.52939 | 3.41200 | 40971 ft | 517 kts | 94° |
| 2026-05-06 21:48 | 48.52526 | 3.52015 | 40970 ft | 517 kts | 94° |
| 2026-05-06 21:49 | 48.52104 | 3.62832 | 40970 ft | 517 kts | 94° |
| 2026-05-06 21:49 | 48.51672 | 3.73667 | 40967 ft | 517 kts | 94° |
| 2026-05-06 21:50 | 48.51230 | 3.84502 | 40965 ft | 517 kts | 94° |
| 2026-05-06 21:50 | 48.50761 | 3.95329 | 40962 ft | 517 kts | 96° |
| 2026-05-06 21:51 | 48.49102 | 4.05800 | 40966 ft | 513 kts | 114° |
| 2026-05-06 21:51 | 48.46036 | 4.15431 | 40964 ft | 513 kts | 118° |
| 2026-05-06 21:52 | 48.42705 | 4.24951 | 40968 ft | 513 kts | 119° |
| 2026-05-06 21:52 | 48.39355 | 4.34446 | 40965 ft | 513 kts | 119° |
| 2026-05-06 21:53 | 48.36025 | 4.43944 | 40958 ft | 513 kts | 119° |
| 2026-05-06 21:53 | 48.32708 | 4.53425 | 40960 ft | 513 kts | 119° |
| 2026-05-06 21:54 | 48.29374 | 4.62927 | 40957 ft | 513 kts | 119° |
| 2026-05-06 21:54 | 48.26035 | 4.72406 | 40960 ft | 513 kts | 119° |
| 2026-05-06 21:55 | 48.22689 | 4.81867 | 40951 ft | 513 kts | 119° |
| 2026-05-06 21:55 | 48.19353 | 4.91265 | 40954 ft | 513 kts | 119° |
| 2026-05-06 21:56 | 48.15991 | 5.00701 | 40950 ft | 513 kts | 119° |
| 2026-05-06 21:56 | 48.12616 | 5.10143 | 40947 ft | 513 kts | 120° |
| 2026-05-06 21:57 | 48.09721 | 5.19902 | 40945 ft | 515 kts | 109° |
| 2026-05-06 21:57 | 48.07667 | 5.30092 | 40945 ft | 515 kts | 107° |
| 2026-05-06 21:58 | 48.05724 | 5.40406 | 40935 ft | 516 kts | 107° |
| 2026-05-06 21:58 | 48.03776 | 5.50691 | 40926 ft | 509 kts | 107° |
| 2026-05-06 21:59 | 48.01837 | 5.60762 | 40939 ft | 502 kts | 107° |
| 2026-05-06 21:59 | 47.99891 | 5.70758 | 40911 ft | 502 kts | 108° |
| 2026-05-06 22:00 | 47.98900 | 5.75817 | 40706 ft | 509 kts | 108° |
| 2026-05-06 22:00 | 47.97903 | 5.80899 | 40593 ft | 513 kts | 108° |
| 2026-05-06 22:00 | 47.95884 | 5.91161 | 40577 ft | 515 kts | 108° |
| 2026-05-06 22:01 | 47.94879 | 5.96256 | 40364 ft | 510 kts | 108° |
| 2026-05-06 22:01 | 47.93889 | 6.01262 | 39722 ft | 510 kts | 108° |
| 2026-05-06 22:01 | 47.92882 | 6.06334 | 39006 ft | 511 kts | 108° |
| 2026-05-06 22:01 | 47.91868 | 6.11428 | 38245 ft | 512 kts | 108° |
| 2026-05-06 22:02 | 47.90850 | 6.16525 | 37419 ft | 512 kts | 108° |
| 2026-05-06 22:02 | 47.89833 | 6.21610 | 36644 ft | 511 kts | 108° |
| 2026-05-06 22:02 | 47.88817 | 6.26674 | 35884 ft | 510 kts | 108° |
| 2026-05-06 22:02 | 47.87799 | 6.31733 | 35125 ft | 509 kts | 108° |
| 2026-05-06 22:03 | 47.86785 | 6.36764 | 34364 ft | 508 kts | 108° |
| 2026-05-06 22:03 | 47.85767 | 6.41798 | 33522 ft | 507 kts | 108° |
| 2026-05-06 22:03 | 47.84747 | 6.46831 | 32622 ft | 505 kts | 108° |
| 2026-05-06 22:03 | 47.83730 | 6.51832 | 31745 ft | 502 kts | 108° |
| 2026-05-06 22:04 | 47.82734 | 6.56717 | 30945 ft | 499 kts | 107° |
| 2026-05-06 22:04 | 47.81729 | 6.61633 | 30142 ft | 495 kts | 107° |
| 2026-05-06 22:04 | 47.80729 | 6.66511 | 29226 ft | 492 kts | 107° |
| 2026-05-06 22:04 | 47.79734 | 6.71367 | 28487 ft | 487 kts | 107° |
| 2026-05-06 22:05 | 47.78751 | 6.76153 | 27868 ft | 481 kts | 107° |
| 2026-05-06 22:05 | 47.77780 | 6.80878 | 27244 ft | 475 kts | 107° |
| 2026-05-06 22:05 | 47.76814 | 6.85561 | 26645 ft | 470 kts | 107° |
| 2026-05-06 22:05 | 47.75853 | 6.90199 | 26038 ft | 466 kts | 107° |
| 2026-05-06 22:06 | 47.74901 | 6.94789 | 25438 ft | 462 kts | 107° |
| 2026-05-06 22:06 | 47.73954 | 6.99336 | 24833 ft | 459 kts | 107° |
| 2026-05-06 22:06 | 47.73013 | 7.03845 | 24268 ft | 455 kts | 107° |
| 2026-05-06 22:06 | 47.72078 | 7.08321 | 23672 ft | 452 kts | 107° |
| 2026-05-06 22:07 | 47.71146 | 7.12768 | 23007 ft | 449 kts | 107° |
| 2026-05-06 22:07 | 47.70221 | 7.17179 | 22423 ft | 444 kts | 108° |
| 2026-05-06 22:07 | 47.69308 | 7.21534 | 21885 ft | 439 kts | 108° |
| 2026-05-06 22:07 | 47.68417 | 7.25774 | 21365 ft | 434 kts | 108° |
| 2026-05-06 22:08 | 47.67516 | 7.30031 | 20779 ft | 430 kts | 108° |
| 2026-05-06 22:08 | 47.66623 | 7.34242 | 20216 ft | 427 kts | 108° |
| 2026-05-06 22:08 | 47.65734 | 7.38423 | 19644 ft | 424 kts | 108° |
| 2026-05-06 22:08 | 47.64849 | 7.42587 | 19062 ft | 421 kts | 108° |
| 2026-05-06 22:09 | 47.63967 | 7.46728 | 18475 ft | 419 kts | 108° |
| 2026-05-06 22:09 | 47.63134 | 7.50636 | 17874 ft | 417 kts | 108° |
| 2026-05-06 22:09 | 47.62286 | 7.54465 | 17303 ft | 414 kts | 110° |
| 2026-05-06 22:09 | 47.61335 | 7.58477 | 16717 ft | 411 kts | 111° |
| 2026-05-06 22:10 | 47.60386 | 7.62458 | 16117 ft | 408 kts | 111° |
| 2026-05-06 22:10 | 47.59457 | 7.66376 | 15534 ft | 406 kts | 111° |
| 2026-05-06 22:10 | 47.58514 | 7.70364 | 14936 ft | 404 kts | 111° |
| 2026-05-06 22:10 | 47.57602 | 7.74230 | 14344 ft | 402 kts | 111° |
| 2026-05-06 22:11 | 47.56686 | 7.78130 | 13746 ft | 399 kts | 111° |
| 2026-05-06 22:11 | 47.55773 | 7.81995 | 13113 ft | 396 kts | 111° |
| 2026-05-06 22:11 | 47.54865 | 7.85830 | 12516 ft | 393 kts | 111° |
| 2026-05-06 22:11 | 47.53964 | 7.89635 | 11928 ft | 390 kts | 111° |
| 2026-05-06 22:12 | 47.53085 | 7.93346 | 11792 ft | 374 kts | 111° |
| 2026-05-06 22:12 | 47.52244 | 7.96894 | 11674 ft | 358 kts | 112° |
| 2026-05-06 22:12 | 47.51436 | 8.00299 | 11552 ft | 343 kts | 112° |
| 2026-05-06 22:12 | 47.50658 | 8.03568 | 11442 ft | 330 kts | 112° |
| 2026-05-06 22:13 | 47.49947 | 8.06553 | 11309 ft | 319 kts | 112° |
| 2026-05-06 22:13 | 47.49223 | 8.09597 | 11168 ft | 308 kts | 112° |
| 2026-05-06 22:13 | 47.48525 | 8.12531 | 11027 ft | 297 kts | 112° |
| 2026-05-06 22:13 | 47.47847 | 8.15374 | 10822 ft | 291 kts | 112° |
| 2026-05-06 22:14 | 47.47556 | 8.16635 | 10685 ft | 291 kts | 111° |
| 2026-05-06 22:14 | 47.47257 | 8.19602 | 10356 ft | 295 kts | 88° |
| 2026-05-06 22:14 | 47.47839 | 8.22498 | 10066 ft | 296 kts | 64° |
| 2026-05-06 22:14 | 47.48845 | 8.25151 | 9726 ft | 297 kts | 57° |
| 2026-05-06 22:15 | 47.50301 | 8.27285 | 9424 ft | 295 kts | 27° |
| 2026-05-06 22:15 | 47.52227 | 8.28053 | 9127 ft | 284 kts | 354° |
| 2026-05-06 22:15 | 47.54050 | 8.27257 | 8872 ft | 270 kts | 321° |
| 2026-05-06 22:15 | 47.55272 | 8.25276 | 8642 ft | 258 kts | 296° |
| 2026-05-06 22:16 | 47.56342 | 8.23119 | 8340 ft | 262 kts | 305° |
| 2026-05-06 22:16 | 47.57546 | 8.21094 | 8055 ft | 262 kts | 308° |
| 2026-05-06 22:16 | 47.58810 | 8.19160 | 7775 ft | 261 kts | 310° |
| 2026-05-06 22:16 | 47.60279 | 8.17546 | 7491 ft | 268 kts | 330° |
| 2026-05-06 22:17 | 47.62121 | 8.17016 | 7198 ft | 277 kts | 360° |
| 2026-05-06 22:17 | 47.63954 | 8.17911 | 6925 ft | 281 kts | 31° |
| 2026-05-06 22:17 | 47.65387 | 8.19819 | 6812 ft | 273 kts | 45° |
| 2026-05-06 22:17 | 47.66582 | 8.21935 | 6651 ft | 265 kts | 56° |
| 2026-05-06 22:18 | 47.67204 | 8.24439 | 6494 ft | 254 kts | 89° |
| 2026-05-06 22:18 | 47.66925 | 8.26890 | 6402 ft | 233 kts | 115° |
| 2026-05-06 22:18 | 47.66449 | 8.28270 | 6319 ft | 220 kts | 129° |
| 2026-05-06 22:18 | 47.65495 | 8.29912 | 6218 ft | 201 kts | 144° |
| 2026-05-06 22:19 | 47.64187 | 8.31674 | 5876 ft | 184 kts | 145° |
| 2026-05-06 22:19 | 47.63274 | 8.32936 | 5601 ft | 176 kts | 144° |
| 2026-05-06 22:19 | 47.62403 | 8.34143 | 5341 ft | 168 kts | 145° |
| 2026-05-06 22:19 | 47.61841 | 8.34915 | 5161 ft | 163 kts | 145° |
| 2026-05-06 22:20 | 47.61023 | 8.36040 | 4938 ft | 158 kts | 145° |
| 2026-05-06 22:20 | 47.60220 | 8.37142 | 4731 ft | 158 kts | 145° |
| 2026-05-06 22:20 | 47.59409 | 8.38255 | 4494 ft | 159 kts | 144° |
| 2026-05-06 22:20 | 47.58599 | 8.39369 | 4287 ft | 158 kts | 144° |
| 2026-05-06 22:21 | 47.57792 | 8.40478 | 4080 ft | 157 kts | 144° |
| 2026-05-06 22:21 | 47.56990 | 8.41577 | 3861 ft | 157 kts | 144° |
| 2026-05-06 22:21 | 47.56192 | 8.42673 | 3654 ft | 156 kts | 143° |
| 2026-05-06 22:21 | 47.55400 | 8.43760 | 3462 ft | 155 kts | 143° |
| 2026-05-06 22:22 | 47.54607 | 8.44848 | 3244 ft | 154 kts | 143° |
| 2026-05-06 22:22 | 47.53831 | 8.45910 | 3031 ft | 153 kts | 142° |
| 2026-05-06 22:22 | 47.53052 | 8.46977 | 2840 ft | 153 kts | 141° |
| 2026-05-06 22:22 | 47.52278 | 8.48039 | 2605 ft | 151 kts | 141° |
| 2026-05-06 22:23 | 47.51517 | 8.49082 | 2392 ft | 148 kts | 139° |
| 2026-05-06 22:23 | 47.50888 | 8.49942 | 2183 ft | 146 kts | 139° |
| 2026-05-06 22:23 | 47.50112 | 8.50968 | 1963 ft | 148 kts | 139° |
| 2026-05-06 22:23 | 47.49347 | 8.51973 | 1731 ft | 148 kts | 136° |
| 2026-05-06 22:24 | 47.48615 | 8.53035 | 1562 ft | 147 kts | 134° |
| 2026-05-06 22:24 | 47.47887 | 8.54056 | 1442 ft | 139 kts | 137° |
| 2026-05-06 22:24 | 47.47223 | 8.54941 | 1412 ft | 122 kts | 136° |
| 2026-05-06 22:24 | 47.46674 | 8.55700 | 1417 ft | 94 kts | 136° |
| 2026-05-06 22:25 | 47.46249 | 8.56275 | 1415 ft | 66 kts | 140° |
| 2026-05-06 22:25 | 47.46079 | 8.56336 | 1412 ft | 15 kts | 188° |
| 2026-05-06 22:25 | 47.45978 | 8.56306 | 1411 ft | 15 kts | 190° |
| 2026-05-06 22:25 | 47.45919 | 8.56229 | 1413 ft | 10 kts | 256° |
| 2026-05-06 22:26 | 47.45921 | 8.56128 | 1412 ft | 11 kts | 274° |
| 2026-05-06 22:26 | 47.45929 | 8.56004 | 1407 ft | 13 kts | 277° |
| 2026-05-06 22:26 | 47.45940 | 8.55859 | 1406 ft | 15 kts | 276° |
| 2026-05-06 22:26 | 47.45952 | 8.55692 | 1408 ft | 16 kts | 277° |
| 2026-05-06 22:27 | 47.45995 | 8.55624 | 1410 ft | 6 kts | 351° |
| 2026-05-06 22:27 | 47.46023 | 8.55635 | 1413 ft | 4 kts | 24° |
| 2026-05-06 22:27 | 47.46045 | 8.55643 | 1408 ft | 1 kts | 9° |